Observation data for Romero 11SSW on 02/21/2019      Previous  Date       Current Mesonet Observations  Soil Data  Daily Summary Page  Observations in Plain Language
KBR1 210600Z 23001KT M02/M13 A2979 RMK A01 T10161133  RH  040%=      5-min Rain = 0
KBR1 210601Z 23001KT M02/M13 A2979 RMK A01 T10151133  RH  040%=      5-min Rain = 0
KBR1 210602Z 23002KT M02/M13 A2979 RMK A01 T10151133  RH  040%=      5-min Rain = 0
KBR1 210603Z 22002KT M01/M13 A2979 RMK A01 T10141133  RH  040%=      5-min Rain = 0
KBR1 210604Z 20001KT M01/M13 A2979 RMK A01 T10141133  RH  040%=      5-min Rain = 0
KBR1 210605Z 20001KT M01/M13 A2979 RMK A01 T10131132  RH  040%=      5-min Rain = 0
KBR1 210606Z 18001KT M01/M13 A2979 RMK A01 T10121132  RH  040%=      5-min Rain = 0
KBR1 210607Z 18002KT M01/M13 A2979 RMK A01 T10121133  RH  039%=      5-min Rain = 0
KBR1 210608Z 18002KT M01/M13 A2979 RMK A01 T10121133  RH  039%=      5-min Rain = 0
KBR1 210609Z 17002KT M01/M13 A2979 RMK A01 T10111132  RH  039%=      5-min Rain = 0
KBR1 210610Z 17001KT M01/M13 A2979 RMK A01 T10101132  RH  039%=      5-min Rain = 0
KBR1 210611Z 17002KT M01/M13 A2979 RMK A01 T10101132  RH  039%=      5-min Rain = 0
KBR1 210612Z 17002KT M01/M13 A2978 RMK A01 T10091132  RH  039%=      5-min Rain = 0
KBR1 210613Z 17003KT M01/M13 A2978 RMK A01 T10091133  RH  038%=      5-min Rain = 0
KBR1 210614Z 18003KT M01/M13 A2978 RMK A01 T10081133  RH  038%=      5-min Rain = 0
KBR1 210615Z 17003KT M01/M13 A2978 RMK A01 T10071133  RH  038%=      5-min Rain = 0
KBR1 210616Z 19002KT M01/M13 A2978 RMK A01 T10071133  RH  038%=      5-min Rain = 0
KBR1 210617Z 20002KT M01/M13 A2978 RMK A01 T10071133  RH  038%=      5-min Rain = 0
KBR1 210618Z 19003KT M01/M13 A2978 RMK A01 T10071133  RH  038%=      5-min Rain = 0
KBR1 210619Z 18003KT M01/M14 A2979 RMK A01 T10091135  RH  038%=      5-min Rain = 0
KBR1 210620Z 19003KT M01/M14 A2979 RMK A01 T10101135  RH  038%=      5-min Rain = 0
KBR1 210621Z 20003KT M01/M13 A2979 RMK A01 T10091133  RH  038%=      5-min Rain = 0
KBR1 210622Z 21003KT M01/M13 A2979 RMK A01 T10071133  RH  038%=      5-min Rain = 0
KBR1 210623Z 20003KT M01/M13 A2979 RMK A01 T10071133  RH  038%=      5-min Rain = 0
KBR1 210624Z 20003KT M01/M13 A2979 RMK A01 T10071134  RH  038%=      5-min Rain = 0
KBR1 210625Z 20003KT M01/M13 A2979 RMK A01 T10071134  RH  038%=      5-min Rain = 0
KBR1 210626Z 20002KT M01/M13 A2979 RMK A01 T10071134  RH  038%=      5-min Rain = 0
KBR1 210627Z 21002KT M01/M13 A2979 RMK A01 T10071134  RH  038%=      5-min Rain = 0
KBR1 210628Z 22002KT M01/M13 A2979 RMK A01 T10071134  RH  038%=      5-min Rain = 0
KBR1 210629Z 22002KT M01/M14 A2979 RMK A01 T10091136  RH  038%=      5-min Rain = 0
KBR1 210630Z 22002KT M01/M14 A2979 RMK A01 T10121137  RH  038%=      5-min Rain = 0
KBR1 210631Z 21002KT M01/M14 A2979 RMK A01 T10121136  RH  039%=      5-min Rain = 0
KBR1 210632Z 20002KT M01/M14 A2979 RMK A01 T10121135  RH  039%=      5-min Rain = 0
KBR1 210633Z 19002KT M01/M14 A2979 RMK A01 T10131135  RH  039%=      5-min Rain = 0
KBR1 210634Z 19002KT M01/M13 A2979 RMK A01 T10121134  RH  039%=      5-min Rain = 0
KBR1 210635Z 19002KT M01/M13 A2979 RMK A01 T10091132  RH  039%=      5-min Rain = 0
KBR1 210636Z 19002KT M01/M13 A2979 RMK A01 T10071131  RH  038%=      5-min Rain = 0
KBR1 210637Z 19002KT M00/M13 A2979 RMK A01 T10041131  RH  038%=      5-min Rain = 0
KBR1 210638Z 18002KT M00/M13 A2979 RMK A01 T10031132  RH  037%=      5-min Rain = 0
KBR1 210639Z 17003KT M00/M13 A2979 RMK A01 T10031132  RH  037%=      5-min Rain = 0
KBR1 210640Z 17004KT M01/M13 A2979 RMK A01 T10051134  RH  037%=      5-min Rain = 0
KBR1 210641Z 19003KT M01/M14 A2979 RMK A01 T10071135  RH  037%=      5-min Rain = 0
KBR1 210642Z 19003KT M01/M14 A2979 RMK A01 T10081135  RH  038%=      5-min Rain = 0
KBR1 210643Z 18003KT M01/M14 A2979 RMK A01 T10101135  RH  038%=      5-min Rain = 0
KBR1 210644Z 17003KT M01/M14 A2979 RMK A01 T10121135  RH  039%=      5-min Rain = 0
KBR1 210645Z 17004KT M01/M14 A2979 RMK A01 T10141136  RH  039%=      5-min Rain = 0
KBR1 210646Z 18004KT M02/M14 A2979 RMK A01 T10171137  RH  040%=      5-min Rain = 0
KBR1 210647Z 19003KT M02/M14 A2979 RMK A01 T10191136  RH  041%=      5-min Rain = 0
KBR1 210648Z 20003KT M02/M13 A2979 RMK A01 T10191134  RH  041%=      5-min Rain = 0
KBR1 210649Z 21003KT M02/M13 A2979 RMK A01 T10191133  RH  041%=      5-min Rain = 0
KBR1 210650Z 21003KT M02/M13 A2979 RMK A01 T10181132  RH  041%=      5-min Rain = 0
KBR1 210651Z 20003KT M02/M13 A2979 RMK A01 T10181132  RH  041%=      5-min Rain = 0
KBR1 210652Z 20003KT M02/M13 A2979 RMK A01 T10191133  RH  041%=      5-min Rain = 0
KBR1 210653Z 20003KT M02/M13 A2979 RMK A01 T10201133  RH  042%=      5-min Rain = 0
KBR1 210654Z 21002KT M02/M13 A2979 RMK A01 T10211134  RH  042%=      5-min Rain = 0
KBR1 210655Z 22002KT M02/M13 A2979 RMK A01 T10211133  RH  042%=      5-min Rain = 0
KBR1 210656Z 23002KT M02/M13 A2979 RMK A01 T10221133  RH  042%=      5-min Rain = 0
KBR1 210657Z 23002KT M02/M13 A2979 RMK A01 T10211133  RH  042%=      5-min Rain = 0
KBR1 210658Z 23002KT M02/M13 A2979 RMK A01 T10211133  RH  042%=      5-min Rain = 0
KBR1 210659Z 23002KT M02/M13 A2979 RMK A01 T10201133  RH  042%=      5-min Rain = 0
KBR1 210700Z 23002KT M02/M13 A2979 RMK A01 T10201133  RH  042%=      5-min Rain = 0
KBR1 210701Z 22001KT M02/M13 A2979 RMK A01 T10201133  RH  041%=      5-min Rain = 0
KBR1 210702Z 22001KT M02/M13 A2979 RMK A01 T10191133  RH  041%=      5-min Rain = 0
KBR1 210703Z 23001KT M02/M13 A2979 RMK A01 T10181133  RH  041%=      5-min Rain = 0
KBR1 210704Z 23001KT M02/M13 A2979 RMK A01 T10181133  RH  041%=      5-min Rain = 0
KBR1 210705Z 23001KT M02/M13 A2979 RMK A01 T10171133  RH  041%=      5-min Rain = 0
KBR1 210706Z 23001KT M02/M13 A2979 RMK A01 T10171133  RH  041%=      5-min Rain = 0
KBR1 210707Z 23001KT M02/M13 A2979 RMK A01 T10151132  RH  040%=      5-min Rain = 0
KBR1 210708Z 23001KT M02/M13 A2979 RMK A01 T10151132  RH  040%=      5-min Rain = 0
KBR1 210709Z 23001KT M02/M13 A2979 RMK A01 T10151133  RH  040%=      5-min Rain = 0
KBR1 210710Z 21001KT M01/M13 A2979 RMK A01 T10141133  RH  040%=      5-min Rain = 0
KBR1 210711Z 19001KT M01/M13 A2979 RMK A01 T10141133  RH  040%=      5-min Rain = 0
KBR1 210712Z 19000KT M01/M13 A2979 RMK A01 T10131132  RH  040%=      5-min Rain = 0
KBR1 210713Z 00000KT M01/M13 A2979 RMK A01 T10121132  RH  040%=      5-min Rain = 0
KBR1 210714Z 16000KT M01/M13 A2979 RMK A01 T10131133  RH  040%=      5-min Rain = 0
KBR1 210715Z 16002KT M02/M13 A2979 RMK A01 T10161134  RH  040%=      5-min Rain = 0
KBR1 210716Z 16002KT M02/M13 A2979 RMK A01 T10171133  RH  041%=      5-min Rain = 0
KBR1 210717Z 17003KT M02/M13 A2979 RMK A01 T10161132  RH  041%=      5-min Rain = 0
KBR1 210718Z 17003KT M02/M13 A2979 RMK A01 T10161131  RH  041%=      5-min Rain = 0
KBR1 210719Z 18002KT M02/M13 A2979 RMK A01 T10161131  RH  041%=      5-min Rain = 0
KBR1 210720Z 19001KT M02/M13 A2979 RMK A01 T10161132  RH  041%=      5-min Rain = 0
KBR1 210721Z 18001KT M02/M13 A2979 RMK A01 T10161132  RH  041%=      5-min Rain = 0
KBR1 210722Z 16002KT M02/M13 A2979 RMK A01 T10161132  RH  041%=      5-min Rain = 0
KBR1 210723Z 16002KT M02/M13 A2979 RMK A01 T10171132  RH  041%=      5-min Rain = 0
KBR1 210724Z 16002KT M02/M13 A2979 RMK A01 T10181132  RH  041%=      5-min Rain = 0
KBR1 210725Z 17003KT M02/M13 A2979 RMK A01 T10181132  RH  042%=      5-min Rain = 0
KBR1 210726Z 18002KT M02/M13 A2979 RMK A01 T10181131  RH  042%=      5-min Rain = 0
KBR1 210727Z 18002KT M02/M13 A2979 RMK A01 T10191131  RH  042%=      5-min Rain = 0
KBR1 210728Z 17002KT M02/M13 A2979 RMK A01 T10201132  RH  042%=      5-min Rain = 0
KBR1 210729Z 16003KT M02/M13 A2979 RMK A01 T10201131  RH  042%=      5-min Rain = 0
KBR1 210730Z 15004KT M02/M13 A2979 RMK A01 T10191131  RH  042%=      5-min Rain = 0
KBR1 210731Z 16004KT M02/M13 A2979 RMK A01 T10191130  RH  042%=      5-min Rain = 0
KBR1 210732Z 16003KT M02/M13 A2979 RMK A01 T10211130  RH  043%=      5-min Rain = 0
KBR1 210733Z 16002KT M02/M13 A2979 RMK A01 T10211129  RH  044%=      5-min Rain = 0
KBR1 210734Z 16001KT M02/M13 A2978 RMK A01 T10191127  RH  043%=      5-min Rain = 0
KBR1 210735Z 16001KT M02/M13 A2978 RMK A01 T10181126  RH  043%=      5-min Rain = 0
KBR1 210736Z 16000KT M02/M13 A2978 RMK A01 T10191127  RH  043%=      5-min Rain = 0
KBR1 210737Z 16001KT M02/M13 A2978 RMK A01 T10201127  RH  044%=      5-min Rain = 0
KBR1 210738Z 16002KT M02/M13 A2978 RMK A01 T10201127  RH  044%=      5-min Rain = 0
KBR1 210739Z 16002KT M02/M13 A2978 RMK A01 T10181126  RH  043%=      5-min Rain = 0
KBR1 210740Z 16001KT M01/M13 A2978 RMK A01 T10141125  RH  042%=      5-min Rain = 0
KBR1 210741Z 16000KT M01/M13 A2978 RMK A01 T10101126  RH  041%=      5-min Rain = 0
KBR1 210742Z 00000KT M01/M13 A2978 RMK A01 T10101127  RH  041%=      5-min Rain = 0
KBR1 210743Z 00000KT M01/M13 A2978 RMK A01 T10131128  RH  041%=      5-min Rain = 0
KBR1 210744Z 16001KT M02/M13 A2978 RMK A01 T10171128  RH  042%=      5-min Rain = 0
KBR1 210745Z 16002KT M02/M13 A2978 RMK A01 T10201129  RH  043%=      5-min Rain = 0
KBR1 210746Z 16001KT M02/M13 A2978 RMK A01 T10201129  RH  043%=      5-min Rain = 0
KBR1 210747Z 16001KT M02/M13 A2978 RMK A01 T10181128  RH  043%=      5-min Rain = 0
KBR1 210748Z 16000KT M02/M13 A2978 RMK A01 T10161127  RH  042%=      5-min Rain = 0
KBR1 210749Z 00000KT M02/M13 A2978 RMK A01 T10151128  RH  042%=      5-min Rain = 0
KBR1 210750Z 00000KT M01/M13 A2978 RMK A01 T10141128  RH  042%=      5-min Rain = 0
KBR1 210751Z 00000KT M02/M13 A2978 RMK A01 T10171129  RH  042%=      5-min Rain = 0
KBR1 210752Z 00000KT M02/M13 A2978 RMK A01 T10191129  RH  043%=      5-min Rain = 0
KBR1 210753Z 00000KT M02/M13 A2978 RMK A01 T10191127  RH  043%=      5-min Rain = 0
KBR1 210754Z 00000KT M02/M13 A2978 RMK A01 T10191127  RH  043%=      5-min Rain = 0
KBR1 210755Z 00000KT M02/M13 A2978 RMK A01 T10191127  RH  043%=      5-min Rain = 0
KBR1 210756Z 00000KT M02/M13 A2978 RMK A01 T10181127  RH  043%=      5-min Rain = 0
KBR1 210757Z 00000KT M02/M13 A2978 RMK A01 T10181126  RH  043%=      5-min Rain = 0
KBR1 210758Z 00000KT M02/M13 A2978 RMK A01 T10211126  RH  044%=      5-min Rain = 0
KBR1 210759Z 07001KT M02/M13 A2978 RMK A01 T10241127  RH  045%=      5-min Rain = 0
KBR1 210800Z 07001KT M03/M13 A2978 RMK A01 T10251126  RH  046%=      5-min Rain = 0
KBR1 210801Z 07000KT M03/M13 A2978 RMK A01 T10271125  RH  047%=      5-min Rain = 0
KBR1 210802Z 00000KT M03/M13 A2978 RMK A01 T10281125  RH  047%=      5-min Rain = 0
KBR1 210803Z 00000KT M03/M12 A2978 RMK A01 T10301124  RH  048%=      5-min Rain = 0
KBR1 210804Z 00000KT M03/M12 A2978 RMK A01 T10321124  RH  049%=      5-min Rain = 0
KBR1 210805Z 07000KT M03/M12 A2978 RMK A01 T10321124  RH  049%=      5-min Rain = 0
KBR1 210806Z 07001KT M03/M12 A2978 RMK A01 T10331124  RH  049%=      5-min Rain = 0
KBR1 210807Z 08002KT M03/M13 A2978 RMK A01 T10331125  RH  049%=      5-min Rain = 0
KBR1 210808Z 10002KT M03/M13 A2978 RMK A01 T10341126  RH  049%=      5-min Rain = 0
KBR1 210809Z 10003KT M03/M12 A2978 RMK A01 T10291124  RH  048%=      5-min Rain = 0
KBR1 210810Z 11003KT M02/M12 A2978 RMK A01 T10221121  RH  047%=      5-min Rain = 0
KBR1 210811Z 11002KT M02/M12 A2978 RMK A01 T10151120  RH  045%=      5-min Rain = 0
KBR1 210812Z 10002KT M01/M12 A2978 RMK A01 T10061119  RH  042%=      5-min Rain = 0
KBR1 210813Z 10001KT 00/12 A2978 RMK A01 T00-00-120  RH  040%=      5-min Rain = 0
KBR1 210814Z 11002KT 00/12 A2978 RMK A01 T00000-123  RH  039%=      5-min Rain = 0
KBR1 210815Z 11002KT M01/M13 A2978 RMK A01 T10071127  RH  040%=      5-min Rain = 0
KBR1 210816Z 11002KT M01/M13 A2978 RMK A01 T10121127  RH  041%=      5-min Rain = 0
KBR1 210817Z 11002KT M01/M13 A2978 RMK A01 T10131126  RH  042%=      5-min Rain = 0
KBR1 210818Z 11002KT M01/M13 A2978 RMK A01 T10121125  RH  042%=      5-min Rain = 0
KBR1 210819Z 11003KT M01/M13 A2978 RMK A01 T10121125  RH  042%=      5-min Rain = 0
KBR1 210820Z 11003KT M01/M13 A2978 RMK A01 T10131126  RH  042%=      5-min Rain = 0
KBR1 210821Z 11003KT M01/M13 A2978 RMK A01 T10121125  RH  042%=      5-min Rain = 0
KBR1 210822Z 10003KT M01/M12 A2978 RMK A01 T10101124  RH  042%=      5-min Rain = 0
KBR1 210823Z 10003KT M01/M12 A2978 RMK A01 T10091124  RH  041%=      5-min Rain = 0
KBR1 210824Z 10003KT M01/M13 A2978 RMK A01 T10111125  RH  042%=      5-min Rain = 0
KBR1 210825Z 10003KT M02/M13 A2978 RMK A01 T10171128  RH  043%=      5-min Rain = 0
KBR1 210826Z 10003KT M02/M13 A2978 RMK A01 T10231128  RH  044%=      5-min Rain = 0
KBR1 210827Z 10003KT M03/M13 A2978 RMK A01 T10271127  RH  046%=      5-min Rain = 0
KBR1 210828Z 10003KT M03/M13 A2978 RMK A01 T10281126  RH  047%=      5-min Rain = 0
KBR1 210829Z 10003KT M03/M13 A2978 RMK A01 T10301125  RH  048%=      5-min Rain = 0
KBR1 210830Z 09003KT M03/M13 A2978 RMK A01 T10301125  RH  048%=      5-min Rain = 0
KBR1 210831Z 09002KT M03/M12 A2978 RMK A01 T10291124  RH  048%=      5-min Rain = 0
KBR1 210832Z 09002KT M03/M13 A2978 RMK A01 T10291125  RH  048%=      5-min Rain = 0
KBR1 210833Z 08002KT M03/M13 A2977 RMK A01 T10291125  RH  048%=      5-min Rain = 0
KBR1 210834Z 08002KT M03/M13 A2977 RMK A01 T10311125  RH  048%=      5-min Rain = 0
KBR1 210835Z 08003KT M03/M13 A2977 RMK A01 T10321126  RH  048%=      5-min Rain = 0
KBR1 210836Z 09003KT M03/M13 A2977 RMK A01 T10331126  RH  049%=      5-min Rain = 0
KBR1 210837Z 09002KT M04/M13 A2977 RMK A01 T10351126  RH  049%=      5-min Rain = 0
KBR1 210838Z 09003KT M04/M13 A2977 RMK A01 T10351126  RH  049%=      5-min Rain = 0
KBR1 210839Z 09002KT M03/M13 A2977 RMK A01 T10341126  RH  049%=      5-min Rain = 0
KBR1 210840Z 09002KT M04/M13 A2977 RMK A01 T10351127  RH  049%=      5-min Rain = 0
KBR1 210841Z 09002KT M03/M13 A2977 RMK A01 T10341127  RH  049%=      5-min Rain = 0
KBR1 210842Z 09002KT M04/M13 A2977 RMK A01 T10351128  RH  049%=      5-min Rain = 0
KBR1 210843Z 09002KT M04/M13 A2977 RMK A01 T10351128  RH  049%=      5-min Rain = 0
KBR1 210844Z 08002KT M04/M13 A2977 RMK A01 T10351127  RH  049%=      5-min Rain = 0
KBR1 210845Z 08002KT M04/M13 A2977 RMK A01 T10361127  RH  049%=      5-min Rain = 0
KBR1 210846Z 08003KT M04/M13 A2977 RMK A01 T10371128  RH  049%=      5-min Rain = 0
KBR1 210847Z 08003KT M04/M13 A2977 RMK A01 T10401129  RH  050%=      5-min Rain = 0
KBR1 210848Z 08003KT M04/M13 A2977 RMK A01 T10411128  RH  051%=      5-min Rain = 0
KBR1 210849Z 07003KT M04/M13 A2977 RMK A01 T10411127  RH  051%=      5-min Rain = 0
KBR1 210850Z 07003KT M04/M13 A2977 RMK A01 T10401126  RH  051%=      5-min Rain = 0
KBR1 210851Z 08003KT M04/M13 A2977 RMK A01 T10391126  RH  051%=      5-min Rain = 0
KBR1 210852Z 08003KT M04/M13 A2977 RMK A01 T10391127  RH  051%=      5-min Rain = 0
KBR1 210853Z 08003KT M04/M13 A2977 RMK A01 T10391126  RH  051%=      5-min Rain = 0
KBR1 210854Z 09003KT M04/M13 A2977 RMK A01 T10381126  RH  051%=      5-min Rain = 0
KBR1 210855Z 09003KT M04/M13 A2977 RMK A01 T10361125  RH  050%=      5-min Rain = 0
KBR1 210856Z 09004KT M03/M12 A2977 RMK A01 T10331124  RH  050%=      5-min Rain = 0
KBR1 210857Z 09004KT M03/M12 A2977 RMK A01 T10311124  RH  049%=      5-min Rain = 0
KBR1 210858Z 09004KT M03/M13 A2977 RMK A01 T10301125  RH  048%=      5-min Rain = 0
KBR1 210859Z 08004KT M03/M13 A2977 RMK A01 T10281125  RH  047%=      5-min Rain = 0
KBR1 210900Z 08004KT M03/M13 A2977 RMK A01 T10281125  RH  047%=      5-min Rain = 0
KBR1 210901Z 08004KT M03/M13 A2977 RMK A01 T10281126  RH  047%=      5-min Rain = 0
KBR1 210902Z 08004KT M03/M13 A2977 RMK A01 T10271126  RH  047%=      5-min Rain = 0
KBR1 210903Z 08004KT M03/M13 A2977 RMK A01 T10261126  RH  046%=      5-min Rain = 0
KBR1 210904Z 08004KT M03/M13 A2977 RMK A01 T10261126  RH  046%=      5-min Rain = 0
KBR1 210905Z 08004KT M03/M13 A2977 RMK A01 T10261126  RH  046%=      5-min Rain = 0
KBR1 210906Z 08004KT M03/M13 A2977 RMK A01 T10261126  RH  046%=      5-min Rain = 0
KBR1 210907Z 08004KT M03/M13 A2977 RMK A01 T10261126  RH  046%=      5-min Rain = 0
KBR1 210908Z 08004KT M03/M13 A2977 RMK A01 T10261125  RH  046%=      5-min Rain = 0
KBR1 210909Z 08004KT M03/M13 A2977 RMK A01 T10261125  RH  046%=      5-min Rain = 0
KBR1 210910Z 08005KT M03/M13 A2978 RMK A01 T10261126  RH  046%=      5-min Rain = 0
KBR1 210911Z 08005KT M03/M13 A2978 RMK A01 T10251126  RH  046%=      5-min Rain = 0
KBR1 210912Z 08005KT M03/M13 A2978 RMK A01 T10261127  RH  046%=      5-min Rain = 0
KBR1 210913Z 08005KT M03/M13 A2978 RMK A01 T10261127  RH  046%=      5-min Rain = 0
KBR1 210914Z 08005KT M03/M13 A2978 RMK A01 T10251127  RH  046%=      5-min Rain = 0
KBR1 210915Z 08005KT M03/M13 A2978 RMK A01 T10251127  RH  045%=      5-min Rain = 0
KBR1 210916Z 08005KT M03/M13 A2978 RMK A01 T10261128  RH  045%=      5-min Rain = 0
KBR1 210917Z 09005KT M03/M13 A2978 RMK A01 T10271129  RH  045%=      5-min Rain = 0
KBR1 210918Z 09005KT M03/M13 A2978 RMK A01 T10271129  RH  045%=      5-min Rain = 0
KBR1 210919Z 09006KT M03/M13 A2978 RMK A01 T10271128  RH  046%=      5-min Rain = 0
KBR1 210920Z 09006KT M03/M13 A2978 RMK A01 T10271128  RH  046%=      5-min Rain = 0
KBR1 210921Z 09006KT M03/M13 A2978 RMK A01 T10281128  RH  046%=      5-min Rain = 0
KBR1 210922Z 09007KT M03/M13 A2977 RMK A01 T10301129  RH  047%=      5-min Rain = 0
KBR1 210923Z 09007KT M03/M13 A2977 RMK A01 T10331129  RH  047%=      5-min Rain = 0
KBR1 210924Z 09008KT M04/M13 A2977 RMK A01 T10351128  RH  049%=      5-min Rain = 0
KBR1 210925Z 09008KT M04/M13 A2977 RMK A01 T10371127  RH  050%=      5-min Rain = 0
KBR1 210926Z 09008KT M04/M13 A2977 RMK A01 T10361125  RH  050%=      5-min Rain = 0
KBR1 210927Z 09008KT M04/M12 A2977 RMK A01 T10351124  RH  050%=      5-min Rain = 0
KBR1 210928Z 09008KT M03/M12 A2977 RMK A01 T10331124  RH  049%=      5-min Rain = 0
KBR1 210929Z 09008KT M03/M12 A2977 RMK A01 T10311124  RH  049%=      5-min Rain = 0
KBR1 210930Z 09008KT M03/M12 A2977 RMK A01 T10301124  RH  048%=      5-min Rain = 0
KBR1 210931Z 09008KT M03/M12 A2977 RMK A01 T10291124  RH  048%=      5-min Rain = 0
KBR1 210932Z 09008KT M03/M13 A2977 RMK A01 T10281125  RH  047%=      5-min Rain = 0
KBR1 210933Z 09008KT M03/M13 A2977 RMK A01 T10281125  RH  047%=      5-min Rain = 0
KBR1 210934Z 09008KT M03/M12 A2977 RMK A01 T10261124  RH  047%=      5-min Rain = 0
KBR1 210935Z 09008KT M03/M12 A2977 RMK A01 T10261124  RH  047%=      5-min Rain = 0
KBR1 210936Z 09008KT M03/M13 A2977 RMK A01 T10261125  RH  047%=      5-min Rain = 0
KBR1 210937Z 08007KT M03/M13 A2977 RMK A01 T10251125  RH  047%=      5-min Rain = 0
KBR1 210938Z 08007KT M03/M12 A2977 RMK A01 T10251124  RH  046%=      5-min Rain = 0
KBR1 210939Z 08007KT M03/M12 A2977 RMK A01 T10251124  RH  046%=      5-min Rain = 0
KBR1 210940Z 08007KT M03/M12 A2977 RMK A01 T10251124  RH  046%=      5-min Rain = 0
KBR1 210941Z 07005KT M03/M12 A2977 RMK A01 T10261124  RH  047%=      5-min Rain = 0
KBR1 210942Z 04003KT M03/M12 A2977 RMK A01 T10301124  RH  048%=      5-min Rain = 0
KBR1 210943Z 01003KT M03/M13 A2977 RMK A01 T10331125  RH  049%=      5-min Rain = 0
KBR1 210944Z 36003KT M03/M12 A2977 RMK A01 T10341124  RH  050%=      5-min Rain = 0
KBR1 210945Z 36004KT M03/M12 A2977 RMK A01 T10341124  RH  050%=      5-min Rain = 0
KBR1 210946Z 02004KT M04/M13 A2977 RMK A01 T10351125  RH  050%=      5-min Rain = 0
KBR1 210947Z 04003KT M03/M12 A2977 RMK A01 T10321124  RH  049%=      5-min Rain = 0
KBR1 210948Z 02003KT M03/M12 A2977 RMK A01 T10321124  RH  049%=      5-min Rain = 0
KBR1 210949Z 36002KT M03/M12 A2977 RMK A01 T10321124  RH  049%=      5-min Rain = 0
KBR1 210950Z 35002KT M03/M12 A2977 RMK A01 T10331124  RH  050%=      5-min Rain = 0
KBR1 210951Z 35003KT M04/M12 A2977 RMK A01 T10361124  RH  050%=      5-min Rain = 0
KBR1 210952Z 36003KT M04/M12 A2978 RMK A01 T10361124  RH  051%=      5-min Rain = 0
KBR1 210953Z 01004KT M04/M13 A2978 RMK A01 T10361125  RH  050%=      5-min Rain = 0
KBR1 210954Z 01004KT M04/M13 A2978 RMK A01 T10351125  RH  050%=      5-min Rain = 0
KBR1 210955Z 01004KT M04/M13 A2978 RMK A01 T10351125  RH  050%=      5-min Rain = 0
KBR1 210956Z 02004KT M04/M13 A2978 RMK A01 T10351125  RH  050%=      5-min Rain = 0
KBR1 210957Z 02004KT M04/M13 A2977 RMK A01 T10351125  RH  050%=      5-min Rain = 0
KBR1 210958Z 02004KT M04/M13 A2977 RMK A01 T10361125  RH  050%=      5-min Rain = 0
KBR1 210959Z 02004KT M04/M13 A2977 RMK A01 T10361125  RH  050%=      5-min Rain = 0
KBR1 211000Z 02003KT M04/M13 A2977 RMK A01 T10361125  RH  050%=      5-min Rain = 0
KBR1 211001Z 00002KT M04/M13 A2977 RMK A01 T10371125  RH  050%=      5-min Rain = 0
KBR1 211002Z 35002KT M04/M13 A2977 RMK A01 T10371125  RH  051%=      5-min Rain = 0
KBR1 211003Z 36002KT M04/M13 A2977 RMK A01 T10371125  RH  051%=      5-min Rain = 0
KBR1 211004Z 34002KT M04/M13 A2977 RMK A01 T10381125  RH  051%=      5-min Rain = 0
KBR1 211005Z 31003KT M04/M12 A2978 RMK A01 T10391124  RH  052%=      5-min Rain = 0
KBR1 211006Z 30002KT M04/M12 A2978 RMK A01 T10401124  RH  052%=      5-min Rain = 0
KBR1 211007Z 28002KT M04/M12 A2978 RMK A01 T10411124  RH  052%=      5-min Rain = 0
KBR1 211008Z 27002KT M04/M13 A2978 RMK A01 T10421125  RH  053%=      5-min Rain = 0
KBR1 211009Z 26001KT M04/M13 A2978 RMK A01 T10441126  RH  053%=      5-min Rain = 0
KBR1 211010Z 28001KT M05/M13 A2978 RMK A01 T10461126  RH  054%=      5-min Rain = 0
KBR1 211011Z 29001KT M05/M13 A2978 RMK A01 T10461125  RH  054%=      5-min Rain = 0
KBR1 211012Z 27001KT M05/M13 A2978 RMK A01 T10461125  RH  054%=      5-min Rain = 0
KBR1 211013Z 29001KT M05/M13 A2978 RMK A01 T10471125  RH  054%=      5-min Rain = 0
KBR1 211014Z 30002KT M05/M13 A2978 RMK A01 T10471125  RH  054%=      5-min Rain = 0
KBR1 211015Z 31001KT M05/M13 A2978 RMK A01 T10461125  RH  054%=      5-min Rain = 0
KBR1 211016Z 31001KT M05/M13 A2978 RMK A01 T10461125  RH  054%=      5-min Rain = 0
KBR1 211017Z 34001KT M05/M13 A2978 RMK A01 T10461125  RH  054%=      5-min Rain = 0
KBR1 211018Z 01001KT M05/M13 A2978 RMK A01 T10461125  RH  054%=      5-min Rain = 0
KBR1 211019Z 02002KT M05/M13 A2978 RMK A01 T10451125  RH  054%=      5-min Rain = 0
KBR1 211020Z 02002KT M04/M13 A2977 RMK A01 T10441125  RH  053%=      5-min Rain = 0
KBR1 211021Z 03002KT M04/M13 A2977 RMK A01 T10431125  RH  053%=      5-min Rain = 0
KBR1 211022Z 03002KT M04/M13 A2977 RMK A01 T10431125  RH  053%=      5-min Rain = 0
KBR1 211023Z 04002KT M04/M13 A2977 RMK A01 T10431125  RH  053%=      5-min Rain = 0
KBR1 211024Z 04002KT M05/M13 A2977 RMK A01 T10461127  RH  053%=      5-min Rain = 0
KBR1 211025Z 04002KT M05/M13 A2977 RMK A01 T10501128  RH  055%=      5-min Rain = 0
KBR1 211026Z 05002KT M05/M13 A2977 RMK A01 T10511126  RH  056%=      5-min Rain = 0
KBR1 211027Z 05002KT M05/M13 A2977 RMK A01 T10501125  RH  056%=      5-min Rain = 0
KBR1 211028Z 05002KT M05/M12 A2977 RMK A01 T10471123  RH  055%=      5-min Rain = 0
KBR1 211029Z 05002KT M05/M12 A2977 RMK A01 T10451124  RH  054%=      5-min Rain = 0
KBR1 211030Z 06002KT M04/M13 A2977 RMK A01 T10431125  RH  053%=      5-min Rain = 0
KBR1 211031Z 06001KT M04/M13 A2977 RMK A01 T10421125  RH  052%=      5-min Rain = 0
KBR1 211032Z 05001KT M04/M13 A2977 RMK A01 T10411126  RH  052%=      5-min Rain = 0
KBR1 211033Z 05001KT M04/M13 A2978 RMK A01 T10411126  RH  051%=      5-min Rain = 0
KBR1 211034Z 07001KT M04/M13 A2978 RMK A01 T10411126  RH  052%=      5-min Rain = 0
KBR1 211035Z 08001KT M04/M13 A2978 RMK A01 T10431127  RH  052%=      5-min Rain = 0
KBR1 211036Z 09000KT M04/M13 A2978 RMK A01 T10441127  RH  052%=      5-min Rain = 0
KBR1 211037Z 10000KT M04/M13 A2978 RMK A01 T10431126  RH  052%=      5-min Rain = 0
KBR1 211038Z 00000KT M04/M13 A2978 RMK A01 T10431126  RH  052%=      5-min Rain = 0
KBR1 211039Z 00000KT M04/M13 A2978 RMK A01 T10431126  RH  052%=      5-min Rain = 0
KBR1 211040Z 00000KT M04/M13 A2978 RMK A01 T10431127  RH  052%=      5-min Rain = 0
KBR1 211041Z 33000KT M04/M13 A2978 RMK A01 T10431127  RH  052%=      5-min Rain = 0
KBR1 211042Z 33000KT M04/M13 A2978 RMK A01 T10441127  RH  052%=      5-min Rain = 0
KBR1 211043Z 34001KT M04/M13 A2978 RMK A01 T10441127  RH  052%=      5-min Rain = 0
KBR1 211044Z 34002KT M04/M13 A2978 RMK A01 T10431126  RH  052%=      5-min Rain = 0
KBR1 211045Z 34002KT M05/M13 A2978 RMK A01 T10461127  RH  053%=      5-min Rain = 0
KBR1 211046Z 35002KT M05/M13 A2978 RMK A01 T10511128  RH  054%=      5-min Rain = 0
KBR1 211047Z 36002KT M05/M13 A2978 RMK A01 T10531128  RH  055%=      5-min Rain = 0
KBR1 211048Z 00002KT M05/M13 A2978 RMK A01 T10521127  RH  056%=      5-min Rain = 0
KBR1 211049Z 01002KT M05/M13 A2978 RMK A01 T10521127  RH  056%=      5-min Rain = 0
KBR1 211050Z 01002KT M05/M13 A2978 RMK A01 T10521127  RH  056%=      5-min Rain = 0
KBR1 211051Z 01001KT M05/M13 A2978 RMK A01 T10511126  RH  056%=      5-min Rain = 0
KBR1 211052Z 36001KT M05/M13 A2978 RMK A01 T10491125  RH  055%=      5-min Rain = 0
KBR1 211053Z 34001KT M05/M13 A2978 RMK A01 T10471125  RH  055%=      5-min Rain = 0
KBR1 211054Z 33002KT M05/M13 A2977 RMK A01 T10471125  RH  054%=      5-min Rain = 0
KBR1 211055Z 33002KT M05/M13 A2977 RMK A01 T10471126  RH  054%=      5-min Rain = 0
KBR1 211056Z 33003KT M05/M13 A2977 RMK A01 T10481127  RH  054%=      5-min Rain = 0
KBR1 211057Z 33003KT M05/M13 A2977 RMK A01 T10501127  RH  055%=      5-min Rain = 0
KBR1 211058Z 33003KT M05/M13 A2977 RMK A01 T10511127  RH  055%=      5-min Rain = 0
KBR1 211059Z 34003KT M05/M13 A2977 RMK A01 T10521127  RH  056%=      5-min Rain = 0
KBR1 211100Z 35003KT M05/M13 A2977 RMK A01 T10521126  RH  056%=      5-min Rain = 0
KBR1 211101Z 35003KT M05/M13 A2977 RMK A01 T10521126  RH  056%=      5-min Rain = 0
KBR1 211102Z 35003KT M05/M13 A2977 RMK A01 T10521125  RH  056%=      5-min Rain = 0
KBR1 211103Z 35003KT M05/M13 A2977 RMK A01 T10511125  RH  056%=      5-min Rain = 0
KBR1 211104Z 35003KT M05/M13 A2977 RMK A01 T10511125  RH  056%=      5-min Rain = 0
KBR1 211105Z 35003KT M05/M13 A2977 RMK A01 T10511125  RH  056%=      5-min Rain = 0
KBR1 211106Z 35003KT M05/M13 A2977 RMK A01 T10511125  RH  056%=      5-min Rain = 0
KBR1 211107Z 35003KT M05/M13 A2977 RMK A01 T10511125  RH  056%=      5-min Rain = 0
KBR1 211108Z 35004KT M05/M13 A2977 RMK A01 T10521125  RH  056%=      5-min Rain = 0
KBR1 211109Z 35004KT M05/M13 A2977 RMK A01 T10521125  RH  057%=      5-min Rain = 0
KBR1 211110Z 35003KT M05/M12 A2977 RMK A01 T10511124  RH  057%=      5-min Rain = 0
KBR1 211111Z 35003KT M05/M12 A2977 RMK A01 T10501123  RH  056%=      5-min Rain = 0
KBR1 211112Z 35003KT M05/M12 A2977 RMK A01 T10491123  RH  056%=      5-min Rain = 0
KBR1 211113Z 35003KT M05/M12 A2977 RMK A01 T10491122  RH  056%=      5-min Rain = 0
KBR1 211114Z 35003KT M05/M12 A2977 RMK A01 T10481122  RH  056%=      5-min Rain = 0
KBR1 211115Z 35003KT M05/M12 A2977 RMK A01 T10481121  RH  056%=      5-min Rain = 0
KBR1 211116Z 35004KT M05/M12 A2977 RMK A01 T10471121  RH  056%=      5-min Rain = 0
KBR1 211117Z 35004KT M05/M12 A2977 RMK A01 T10461121  RH  056%=      5-min Rain = 0
KBR1 211118Z 35003KT M05/M12 A2977 RMK A01 T10471121  RH  056%=      5-min Rain = 0
KBR1 211119Z 35003KT M05/M12 A2977 RMK A01 T10461120  RH  056%=      5-min Rain = 0
KBR1 211120Z 35003KT M05/M12 A2977 RMK A01 T10461120  RH  056%=      5-min Rain = 0
KBR1 211121Z 35002KT M05/M12 A2977 RMK A01 T10451120  RH  056%=      5-min Rain = 0
KBR1 211122Z 35002KT M04/M12 A2977 RMK A01 T10441119  RH  056%=      5-min Rain = 0
KBR1 211123Z 35002KT M04/M12 A2977 RMK A01 T10441120  RH  055%=      5-min Rain = 0
KBR1 211124Z 35002KT M04/M12 A2977 RMK A01 T10421119  RH  055%=      5-min Rain = 0
KBR1 211125Z 35002KT M04/M12 A2977 RMK A01 T10401119  RH  054%=      5-min Rain = 0
KBR1 211126Z 35002KT M04/M12 A2977 RMK A01 T10381119  RH  053%=      5-min Rain = 0
KBR1 211127Z 35002KT M04/M12 A2977 RMK A01 T10361119  RH  053%=      5-min Rain = 0
KBR1 211128Z 35002KT M04/M12 A2977 RMK A01 T10351120  RH  052%=      5-min Rain = 0
KBR1 211129Z 35001KT M04/M12 A2977 RMK A01 T10351120  RH  052%=      5-min Rain = 0
KBR1 211130Z 35001KT M04/M12 A2978 RMK A01 T10351120  RH  052%=      5-min Rain = 0
KBR1 211131Z 35001KT M04/M12 A2978 RMK A01 T10351119  RH  052%=      5-min Rain = 0
KBR1 211132Z 35001KT M04/M12 A2978 RMK A01 T10351119  RH  052%=      5-min Rain = 0
KBR1 211133Z 35001KT M04/M12 A2978 RMK A01 T10351118  RH  053%=      5-min Rain = 0
KBR1 211134Z 35000KT M04/M12 A2978 RMK A01 T10361118  RH  053%=      5-min Rain = 0
KBR1 211135Z 00000KT M03/M12 A2978 RMK A01 T10341119  RH  052%=      5-min Rain = 0
KBR1 211136Z 00000KT M03/M12 A2978 RMK A01 T10321118  RH  051%=      5-min Rain = 0
KBR1 211137Z 00000KT M03/M12 A2978 RMK A01 T10301118  RH  051%=      5-min Rain = 0
KBR1 211138Z 00000KT M03/M12 A2978 RMK A01 T10311119  RH  051%=      5-min Rain = 0
KBR1 211139Z 00000KT M03/M12 A2978 RMK A01 T10301119  RH  050%=      5-min Rain = 0
KBR1 211140Z 00000KT M03/M12 A2978 RMK A01 T10291119  RH  050%=      5-min Rain = 0
KBR1 211141Z 35000KT M03/M12 A2978 RMK A01 T10271119  RH  049%=      5-min Rain = 0
KBR1 211142Z 35001KT M03/M12 A2978 RMK A01 T10261119  RH  049%=      5-min Rain = 0
KBR1 211143Z 35001KT M02/M12 A2978 RMK A01 T10241120  RH  048%=      5-min Rain = 0
KBR1 211144Z 22001KT M02/M12 A2978 RMK A01 T10221120  RH  047%=      5-min Rain = 0
KBR1 211145Z 21002KT M02/M12 A2978 RMK A01 T10211120  RH  047%=      5-min Rain = 0
KBR1 211146Z 21002KT M02/M12 A2979 RMK A01 T10221119  RH  047%=      5-min Rain = 0
KBR1 211147Z 22001KT M02/M12 A2979 RMK A01 T10231119  RH  048%=      5-min Rain = 0
KBR1 211148Z 22001KT M03/M12 A2979 RMK A01 T10271118  RH  050%=      5-min Rain = 0
KBR1 211149Z 21001KT M03/M12 A2979 RMK A01 T10311119  RH  051%=      5-min Rain = 0
KBR1 211150Z 23001KT M04/M12 A2978 RMK A01 T10351119  RH  052%=      5-min Rain = 0
KBR1 211151Z 25002KT M04/M12 A2978 RMK A01 T10371118  RH  053%=      5-min Rain = 0
KBR1 211152Z 26002KT M04/M12 A2978 RMK A01 T10391117  RH  055%=      5-min Rain = 0
KBR1 211153Z 27002KT M04/M12 A2979 RMK A01 T10411117  RH  056%=      5-min Rain = 0
KBR1 211154Z 27002KT M04/M12 A2978 RMK A01 T10421117  RH  056%=      5-min Rain = 0
KBR1 211155Z 27002KT M04/M12 A2978 RMK A01 T10431116  RH  057%=      5-min Rain = 0
KBR1 211156Z 28002KT M04/M12 A2978 RMK A01 T10441117  RH  057%=      5-min Rain = 0
KBR1 211157Z 29002KT M04/M12 A2978 RMK A01 T10441116  RH  057%=      5-min Rain = 0
KBR1 211158Z 29002KT M04/M12 A2978 RMK A01 T10441116  RH  057%=      5-min Rain = 0
KBR1 211159Z 29002KT M05/M12 A2978 RMK A01 T10451116  RH  057%=      5-min Rain = 0
KBR1 211200Z 30003KT M04/M12 A2978 RMK A01 T10441115  RH  058%=      5-min Rain = 0
KBR1 211201Z 29003KT M04/M12 A2978 RMK A01 T10441115  RH  058%=      5-min Rain = 0
KBR1 211202Z 30004KT M04/M12 A2978 RMK A01 T10441115  RH  058%=      5-min Rain = 0
KBR1 211203Z 31004KT M04/M12 A2978 RMK A01 T10441115  RH  058%=      5-min Rain = 0
KBR1 211204Z 31004KT M04/M12 A2978 RMK A01 T10431115  RH  057%=      5-min Rain = 0
KBR1 211205Z 31004KT M04/M12 A2978 RMK A01 T10431115  RH  057%=      5-min Rain = 0
KBR1 211206Z 31004KT M04/M12 A2978 RMK A01 T10431115  RH  057%=      5-min Rain = 0
KBR1 211207Z 31004KT M04/M12 A2978 RMK A01 T10441116  RH  057%=      5-min Rain = 0
KBR1 211208Z 31004KT M05/M12 A2977 RMK A01 T10451116  RH  057%=      5-min Rain = 0
KBR1 211209Z 31005KT M05/M12 A2977 RMK A01 T10451116  RH  058%=      5-min Rain = 0
KBR1 211210Z 32005KT M05/M12 A2977 RMK A01 T10461116  RH  058%=      5-min Rain = 0
KBR1 211211Z 31005KT M05/M12 A2978 RMK A01 T10461116  RH  058%=      5-min Rain = 0
KBR1 211212Z 31005KT M05/M12 A2978 RMK A01 T10461117  RH  057%=      5-min Rain = 0
KBR1 211213Z 31005KT M04/M12 A2978 RMK A01 T10441117  RH  057%=      5-min Rain = 0
KBR1 211214Z 32004KT M04/M12 A2977 RMK A01 T10431118  RH  056%=      5-min Rain = 0
KBR1 211215Z 33003KT M04/M12 A2977 RMK A01 T10431118  RH  056%=      5-min Rain = 0
KBR1 211216Z 34003KT M04/M12 A2977 RMK A01 T10421116  RH  056%=      5-min Rain = 0
KBR1 211217Z 34003KT M04/M12 A2977 RMK A01 T10431115  RH  057%=      5-min Rain = 0
KBR1 211218Z 33004KT M05/M12 A2977 RMK A01 T10451115  RH  058%=      5-min Rain = 0
KBR1 211219Z 32004KT M05/M12 A2977 RMK A01 T10461115  RH  058%=      5-min Rain = 0
KBR1 211220Z 33004KT M05/M12 A2977 RMK A01 T10461115  RH  059%=      5-min Rain = 0
KBR1 211221Z 32004KT M05/M12 A2977 RMK A01 T10471115  RH  059%=      5-min Rain = 0
KBR1 211222Z 32004KT M05/M12 A2977 RMK A01 T10461115  RH  059%=      5-min Rain = 0
KBR1 211223Z 32004KT M05/M12 A2977 RMK A01 T10461115  RH  059%=      5-min Rain = 0
KBR1 211224Z 31005KT M05/M12 A2978 RMK A01 T10471115  RH  059%=      5-min Rain = 0
KBR1 211225Z 31004KT M05/M12 A2978 RMK A01 T10461115  RH  059%=      5-min Rain = 0
KBR1 211226Z 31004KT M05/M12 A2978 RMK A01 T10451115  RH  058%=      5-min Rain = 0
KBR1 211227Z 31004KT M04/M12 A2978 RMK A01 T10441116  RH  058%=      5-min Rain = 0
KBR1 211228Z 31004KT M04/M12 A2978 RMK A01 T10441116  RH  057%=      5-min Rain = 0
KBR1 211229Z 31004KT M04/M12 A2978 RMK A01 T10421116  RH  057%=      5-min Rain = 0
KBR1 211230Z 31005KT M04/M12 A2978 RMK A01 T10411116  RH  056%=      5-min Rain = 0
KBR1 211231Z 31004KT M04/M12 A2978 RMK A01 T10391117  RH  055%=      5-min Rain = 0
KBR1 211232Z 31004KT M04/M12 A2978 RMK A01 T10381116  RH  055%=      5-min Rain = 0
KBR1 211233Z 31004KT M04/M12 A2978 RMK A01 T10381116  RH  055%=      5-min Rain = 0
KBR1 211234Z 31004KT M04/M12 A2978 RMK A01 T10391115  RH  055%=      5-min Rain = 0
KBR1 211235Z 31004KT M04/M12 A2978 RMK A01 T10391115  RH  056%=      5-min Rain = 0
KBR1 211236Z 31004KT M04/M12 A2978 RMK A01 T10391116  RH  055%=      5-min Rain = 0
KBR1 211237Z 31005KT M04/M12 A2978 RMK A01 T10381116  RH  055%=      5-min Rain = 0
KBR1 211238Z 32005KT M04/M12 A2978 RMK A01 T10371117  RH  054%=      5-min Rain = 0
KBR1 211239Z 32005KT M04/M12 A2978 RMK A01 T10371115  RH  055%=      5-min Rain = 0
KBR1 211240Z 32005KT M04/M11 A2978 RMK A01 T10371114  RH  055%=      5-min Rain = 0
KBR1 211241Z 32005KT M04/M11 A2978 RMK A01 T10381113  RH  056%=      5-min Rain = 0
KBR1 211242Z 32005KT M04/M11 A2978 RMK A01 T10391113  RH  056%=      5-min Rain = 0
KBR1 211243Z 33005KT M04/M11 A2978 RMK A01 T10391114  RH  056%=      5-min Rain = 0
KBR1 211244Z 33005KT M04/M11 A2978 RMK A01 T10391114  RH  056%=      5-min Rain = 0
KBR1 211245Z 33005KT M04/M11 A2978 RMK A01 T10381114  RH  056%=      5-min Rain = 0
KBR1 211246Z 33005KT M04/M11 A2978 RMK A01 T10371113  RH  056%=      5-min Rain = 0
KBR1 211247Z 33005KT M04/M11 A2978 RMK A01 T10371112  RH  056%=      5-min Rain = 0
KBR1 211248Z 33005KT M04/M11 A2978 RMK A01 T10371112  RH  056%=      5-min Rain = 0
KBR1 211249Z 33006KT M04/M11 A2978 RMK A01 T10361112  RH  056%=      5-min Rain = 0
KBR1 211250Z 33005KT M04/M11 A2978 RMK A01 T10351113  RH  055%=      5-min Rain = 0
KBR1 211251Z 33005KT M03/M11 A2978 RMK A01 T10331113  RH  054%=      5-min Rain = 0
KBR1 211252Z 34005KT M03/M11 A2978 RMK A01 T10321112  RH  054%=      5-min Rain = 0
KBR1 211253Z 34005KT M03/M11 A2978 RMK A01 T10311111  RH  054%=      5-min Rain = 0
KBR1 211254Z 34004KT M03/M11 A2978 RMK A01 T10311111  RH  054%=      5-min Rain = 0
KBR1 211255Z 34005KT M03/M11 A2978 RMK A01 T10311109  RH  054%=      5-min Rain = 0
KBR1 211256Z 35005KT M03/M11 A2978 RMK A01 T10301109  RH  055%=      5-min Rain = 0
KBR1 211257Z 35005KT M03/M11 A2978 RMK A01 T10301109  RH  055%=      5-min Rain = 0
KBR1 211258Z 35004KT M03/M11 A2977 RMK A01 T10311108  RH  055%=      5-min Rain = 0
KBR1 211259Z 35004KT M03/M11 A2977 RMK A01 T10321107  RH  056%=      5-min Rain = 0
KBR1 211300Z 35005KT M03/M11 A2977 RMK A01 T10321107  RH  056%=      5-min Rain = 0
KBR1 211301Z 35005KT M03/M11 A2977 RMK A01 T10331107  RH  056%=      5-min Rain = 0
KBR1 211302Z 35005KT M03/M11 A2977 RMK A01 T10331107  RH  056%=      5-min Rain = 0
KBR1 211303Z 35004KT M03/M11 A2977 RMK A01 T10321108  RH  056%=      5-min Rain = 0
KBR1 211304Z 34004KT M03/M11 A2977 RMK A01 T10311108  RH  055%=      5-min Rain = 0
KBR1 211305Z 34004KT M03/M11 A2977 RMK A01 T10301108  RH  055%=      5-min Rain = 0
KBR1 211306Z 34004KT M03/M11 A2977 RMK A01 T10291109  RH  054%=      5-min Rain = 0
KBR1 211307Z 34004KT M03/M11 A2977 RMK A01 T10291109  RH  054%=      5-min Rain = 0
KBR1 211308Z 34004KT M03/M11 A2977 RMK A01 T10281109  RH  054%=      5-min Rain = 0
KBR1 211309Z 34004KT M03/M11 A2977 RMK A01 T10271109  RH  053%=      5-min Rain = 0
KBR1 211310Z 33004KT M03/M11 A2978 RMK A01 T10271110  RH  053%=      5-min Rain = 0
KBR1 211311Z 33004KT M03/M11 A2978 RMK A01 T10271110  RH  053%=      5-min Rain = 0
KBR1 211312Z 33004KT M03/M11 A2978 RMK A01 T10271110  RH  053%=      5-min Rain = 0
KBR1 211313Z 34004KT M03/M11 A2978 RMK A01 T10261109  RH  053%=      5-min Rain = 0
KBR1 211314Z 33004KT M03/M11 A2978 RMK A01 T10271109  RH  053%=      5-min Rain = 0
KBR1 211315Z 34003KT M03/M11 A2978 RMK A01 T10271108  RH  054%=      5-min Rain = 0
KBR1 211316Z 35002KT M03/M11 A2978 RMK A01 T10281108  RH  054%=      5-min Rain = 0
KBR1 211317Z 00002KT M03/M11 A2978 RMK A01 T10281109  RH  054%=      5-min Rain = 0
KBR1 211318Z 02002KT M03/M11 A2978 RMK A01 T10281109  RH  054%=      5-min Rain = 0
KBR1 211319Z 04002KT M03/M11 A2978 RMK A01 T10271109  RH  053%=      5-min Rain = 0
KBR1 211320Z 05002KT M03/M11 A2978 RMK A01 T10251109  RH  053%=      5-min Rain = 0
KBR1 211321Z 05002KT M02/M11 A2978 RMK A01 T10241109  RH  052%=      5-min Rain = 0
KBR1 211322Z 07002KT M02/M11 A2978 RMK A01 T10241109  RH  052%=      5-min Rain = 0
KBR1 211323Z 08002KT M03/M11 A2978 RMK A01 T10251109  RH  052%=      5-min Rain = 0
KBR1 211324Z 06002KT M03/M11 A2978 RMK A01 T10251109  RH  053%=      5-min Rain = 0
KBR1 211325Z 07002KT M03/M11 A2978 RMK A01 T10261108  RH  053%=      5-min Rain = 0
KBR1 211326Z 08002KT M03/M11 A2978 RMK A01 T10271108  RH  054%=      5-min Rain = 0
KBR1 211327Z 08003KT M03/M11 A2978 RMK A01 T10271108  RH  054%=      5-min Rain = 0
KBR1 211328Z 10003KT M03/M11 A2978 RMK A01 T10281107  RH  054%=      5-min Rain = 0
KBR1 211329Z 11003KT M03/M11 A2978 RMK A01 T10291108  RH  055%=      5-min Rain = 0
KBR1 211330Z 12006KT M03/M11 A2979 RMK A01 T10301108  RH  055%=      5-min Rain = 0
KBR1 211331Z 12008KT M03/M11 A2979 RMK A01 T10301108  RH  055%=      5-min Rain = 0
KBR1 211332Z 12008KT M03/M11 A2979 RMK A01 T10301108  RH  055%=      5-min Rain = 0
KBR1 211333Z 13010KT M03/M11 A2979 RMK A01 T10301108  RH  055%=      5-min Rain = 0
KBR1 211334Z 12009KT M03/M11 A2979 RMK A01 T10311108  RH  055%=      5-min Rain = 0
KBR1 211335Z 11006KT M03/M11 A2979 RMK A01 T10321108  RH  056%=      5-min Rain = 0
KBR1 211336Z 14006KT M03/M11 A2979 RMK A01 T10331108  RH  056%=      5-min Rain = 0
KBR1 211337Z 14006KT M03/M11 A2979 RMK A01 T10341108  RH  056%=      5-min Rain = 0
KBR1 211338Z 14006KT M03/M11 A2979 RMK A01 T10341108  RH  057%=      5-min Rain = 0
KBR1 211339Z 14008KT M03/M11 A298 RMK A01 T10341107  RH  057%=      5-min Rain = 0
KBR1 211340Z 14008KT M04/M11 A298 RMK A01 T10351106  RH  058%=      5-min Rain = 0
KBR1 211341Z 15008KT M04/M11 A298 RMK A01 T10351106  RH  058%=      5-min Rain = 0
KBR1 211342Z 15008KT M04/M11 A298 RMK A01 T10361106  RH  058%=      5-min Rain = 0
KBR1 211343Z 15008KT M04/M11 A298 RMK A01 T10371106  RH  059%=      5-min Rain = 0
KBR1 211344Z 15008KT M04/M11 A298 RMK A01 T10381107  RH  059%=      5-min Rain = 0
KBR1 211345Z 15009KT M04/M11 A298 RMK A01 T10401109  RH  059%=      5-min Rain = 0
KBR1 211346Z 15008KT M04/M11 A298 RMK A01 T10421111  RH  059%=      5-min Rain = 0
KBR1 211347Z 15009KT M04/M11 A298 RMK A01 T10431112  RH  059%=      5-min Rain = 0
KBR1 211348Z 14008KT M04/M11 A298 RMK A01 T10441112  RH  059%=      5-min Rain = 0
KBR1 211349Z 14009KT M05/M11 A2981 RMK A01 T10451113  RH  059%=      5-min Rain = 0
KBR1 211350Z 14008KT M05/M11 A2981 RMK A01 T10461114  RH  059%=      5-min Rain = 0
KBR1 211351Z 15007KT M05/M11 A2981 RMK A01 T10471114  RH  060%=      5-min Rain = 0
KBR1 211352Z 14006KT M05/M11 A2981 RMK A01 T10481114  RH  060%=      5-min Rain = 0
KBR1 211353Z 14005KT M05/M12 A2981 RMK A01 T10491115  RH  060%=      5-min Rain = 0
KBR1 211354Z 15004KT M05/M12 A2981 RMK A01 T10501116  RH  060%=      5-min Rain = 0
KBR1 211355Z 16003KT M05/M12 A2981 RMK A01 T10511116  RH  060%=      5-min Rain = 0
KBR1 211356Z 19003KT M05/M12 A2981 RMK A01 T10521117  RH  060%=      5-min Rain = 0
KBR1 211357Z 24002KT M05/M12 A2981 RMK A01 T10531117  RH  061%=      5-min Rain = 0
KBR1 211358Z 22001KT M05/M12 A2981 RMK A01 T10541117  RH  061%=      5-min Rain = 0
KBR1 211359Z 18001KT M05/M12 A2981 RMK A01 T10541116  RH  062%=      5-min Rain = 0
KBR1 211400Z 17000KT M06/M12 A2981 RMK A01 T10551116  RH  062%=      5-min Rain = 0
KBR1 211401Z 02001KT M06/M12 A2981 RMK A01 T10551116  RH  062%=      5-min Rain = 0
KBR1 211402Z 01001KT M06/M12 A2981 RMK A01 T10561116  RH  062%=      5-min Rain = 0
KBR1 211403Z 35001KT M06/M12 A298 RMK A01 T10561115  RH  064%=      5-min Rain = 0
KBR1 211404Z 35002KT M06/M11 A298 RMK A01 T10561114  RH  063%=      5-min Rain = 0
KBR1 211405Z 35003KT M06/M12 A298 RMK A01 T10551115  RH  063%=      5-min Rain = 0
KBR1 211406Z 00003KT M06/M12 A298 RMK A01 T10551116  RH  062%=      5-min Rain = 0
KBR1 211407Z 02003KT M06/M12 A298 RMK A01 T10561115  RH  063%=      5-min Rain = 0
KBR1 211408Z 04003KT M06/M12 A298 RMK A01 T10571115  RH  064%=      5-min Rain = 0
KBR1 211409Z 04003KT M06/M12 A298 RMK A01 T10581116  RH  064%=      5-min Rain = 0
KBR1 211410Z 02003KT M06/M12 A298 RMK A01 T10591117  RH  064%=      5-min Rain = 0
KBR1 211411Z 35005KT M06/M12 A298 RMK A01 T10601117  RH  064%=      5-min Rain = 0
KBR1 211412Z 35005KT M06/M12 A298 RMK A01 T10621117  RH  065%=      5-min Rain = 0
KBR1 211413Z 36005KT M06/M12 A298 RMK A01 T10621117  RH  065%=      5-min Rain = 0
KBR1 211414Z 35006KT M06/M12 A298 RMK A01 T10621116  RH  066%=      5-min Rain = 0
KBR1 211415Z 35006KT M06/M12 A298 RMK A01 T10621116  RH  066%=      5-min Rain = 0
KBR1 211416Z 36006KT M06/M12 A298 RMK A01 T10621115  RH  066%=      5-min Rain = 0
KBR1 211417Z 00005KT M06/M12 A298 RMK A01 T10631115  RH  066%=      5-min Rain = 0
KBR1 211418Z 01006KT M06/M12 A298 RMK A01 T10641115  RH  067%=      5-min Rain = 0
KBR1 211419Z 01006KT M06/M12 A298 RMK A01 T10641115  RH  067%=      5-min Rain = 0
KBR1 211420Z 03005KT M07/M12 A298 RMK A01 T10651115  RH  068%=      5-min Rain = 0
KBR1 211421Z 03005KT M07/M12 A298 RMK A01 T10651115  RH  068%=      5-min Rain = 0
KBR1 211422Z 02005KT M07/M11 A298 RMK A01 T10651114  RH  068%=      5-min Rain = 0
KBR1 211423Z 02005KT M06/M11 A298 RMK A01 T10641114  RH  068%=      5-min Rain = 0
KBR1 211424Z 02005KT M06/M11 A298 RMK A01 T10641114  RH  068%=      5-min Rain = 0
KBR1 211425Z 01006KT M06/M11 A298 RMK A01 T10641114  RH  068%=      5-min Rain = 0
KBR1 211426Z 01005KT M06/M11 A298 RMK A01 T10631114  RH  068%=      5-min Rain = 0
KBR1 211427Z 01005KT M06/M11 A298 RMK A01 T10621113  RH  067%=      5-min Rain = 0
KBR1 211428Z 01006KT M06/M11 A298 RMK A01 T10611113  RH  067%=      5-min Rain = 0
KBR1 211429Z 01005KT M06/M11 A298 RMK A01 T10611112  RH  067%=      5-min Rain = 0
KBR1 211430Z 02005KT M06/M11 A298 RMK A01 T10601112  RH  067%=      5-min Rain = 0
KBR1 211431Z 02004KT M06/M11 A298 RMK A01 T10601112  RH  067%=      5-min Rain = 0
KBR1 211432Z 02003KT M06/M11 A298 RMK A01 T10591112  RH  066%=      5-min Rain = 0
KBR1 211433Z 02003KT M06/M11 A298 RMK A01 T10591113  RH  066%=      5-min Rain = 0
KBR1 211434Z 01003KT M06/M11 A298 RMK A01 T10601114  RH  066%=      5-min Rain = 0
KBR1 211435Z 36003KT M06/M11 A298 RMK A01 T10611114  RH  066%=      5-min Rain = 0
KBR1 211436Z 35003KT M06/M11 A2981 RMK A01 T10611114  RH  066%=      5-min Rain = 0
KBR1 211437Z 35004KT M06/M11 A2981 RMK A01 T10601112  RH  067%=      5-min Rain = 0
KBR1 211438Z 36003KT M06/M11 A2981 RMK A01 T10581111  RH  066%=      5-min Rain = 0
KBR1 211439Z 36003KT M06/M11 A2981 RMK A01 T10561110  RH  066%=      5-min Rain = 0
KBR1 211440Z 34004KT M06/M11 A2981 RMK A01 T10551109  RH  066%=      5-min Rain = 0
KBR1 211441Z 35005KT M05/M11 A2981 RMK A01 T10541109  RH  065%=      5-min Rain = 0
KBR1 211442Z 00004KT M05/M11 A2981 RMK A01 T10531109  RH  065%=      5-min Rain = 0
KBR1 211443Z 34003KT M05/M11 A2981 RMK A01 T10511108  RH  064%=      5-min Rain = 0
KBR1 211444Z 32002KT M05/M11 A2981 RMK A01 T10491108  RH  063%=      5-min Rain = 0
KBR1 211445Z 31002KT M05/M11 A2981 RMK A01 T10461107  RH  062%=      5-min Rain = 0
KBR1 211446Z 31002KT M04/M11 A2981 RMK A01 T10441107  RH  061%=      5-min Rain = 0
KBR1 211447Z 32002KT M04/M11 A2981 RMK A01 T10411106  RH  060%=      5-min Rain = 0
KBR1 211448Z 31002KT M04/M11 A2981 RMK A01 T10381105  RH  059%=      5-min Rain = 0
KBR1 211449Z 31001KT M03/M10 A2981 RMK A01 T10341103  RH  059%=      5-min Rain = 0
KBR1 211450Z 35003KT M03/M10 A2981 RMK A01 T10311102  RH  058%=      5-min Rain = 0
KBR1 211451Z 00003KT M03/M10 A2981 RMK A01 T10281103  RH  056%=      5-min Rain = 0
KBR1 211452Z 01003KT M03/M10 A2981 RMK A01 T10271104  RH  055%=      5-min Rain = 0
KBR1 211453Z 02002KT M03/M10 A2981 RMK A01 T10251104  RH  055%=      5-min Rain = 0
KBR1 211454Z 01002KT M02/M10 A2981 RMK A01 T10231103  RH  054%=      5-min Rain = 0
KBR1 211455Z 01002KT M02/M10 A2981 RMK A01 T10211102  RH  054%=      5-min Rain = 0
KBR1 211456Z 00002KT M02/M10 A2981 RMK A01 T10191102  RH  053%=      5-min Rain = 0
KBR1 211457Z 00002KT M02/M10 A2981 RMK A01 T10171100  RH  053%=      5-min Rain = 0
KBR1 211458Z 02002KT M02/M10 A2981 RMK A01 T10151100  RH  052%=      5-min Rain = 0
KBR1 211459Z 02002KT M01/M10 A2981 RMK A01 T10131099  RH  052%=      5-min Rain = 0
KBR1 211500Z 02002KT M01/M10 A2981 RMK A01 T10101100  RH  051%=      5-min Rain = 0
KBR1 211501Z 02001KT M01/M10 A2982 RMK A01 T10091101  RH  050%=      5-min Rain = 0
KBR1 211502Z 35002KT M01/M10 A2982 RMK A01 T10061098  RH  050%=      5-min Rain = 0
KBR1 211503Z 34002KT M00/M10 A2982 RMK A01 T10041098  RH  049%=      5-min Rain = 0
KBR1 211504Z 35002KT M00/M10 A2982 RMK A01 T10021099  RH  048%=      5-min Rain = 0
KBR1 211505Z 34003KT M00/M10 A2982 RMK A01 T10011101  RH  047%=      5-min Rain = 0
KBR1 211506Z 34003KT M00/M10 A2982 RMK A01 T10011102  RH  046%=      5-min Rain = 0
KBR1 211507Z 35003KT 00/10 A2982 RMK A01 T00-00-103  RH  046%=      5-min Rain = 0
KBR1 211508Z 34003KT 00/M10 A2982 RMK A01 T00011104  RH  045%=      5-min Rain = 0
KBR1 211509Z 34004KT 00/M11 A2982 RMK A01 T00011105  RH  045%=      5-min Rain = 0
KBR1 211510Z 35003KT 00/M11 A2981 RMK A01 T00021105  RH  044%=      5-min Rain = 0
KBR1 211511Z 35004KT 00/M10 A2981 RMK A01 T00041104  RH  044%=      5-min Rain = 0
KBR1 211512Z 36005KT 01/M10 A2981 RMK A01 T00051104  RH  044%=      5-min Rain = 0
KBR1 211513Z 35005KT 01/M10 A2981 RMK A01 T00071104  RH  043%=      5-min Rain = 0
KBR1 211514Z 35005KT 01/M10 A2981 RMK A01 T00071104  RH  043%=      5-min Rain = 0
KBR1 211515Z 35005KT 01/M10 A2981 RMK A01 T00081103  RH  043%=      5-min Rain = 0
KBR1 211516Z 35004KT 01/M10 A2981 RMK A01 T00101103  RH  043%=      5-min Rain = 0
KBR1 211517Z 35004KT 01/M10 A2981 RMK A01 T00111103  RH  042%=      5-min Rain = 0
KBR1 211518Z 35004KT 01/M10 A2981 RMK A01 T00121102  RH  042%=      5-min Rain = 0
KBR1 211519Z 00004KT 01/M10 A2981 RMK A01 T00141101  RH  042%=      5-min Rain = 0
KBR1 211520Z 36004KT 02/M10 A2981 RMK A01 T00161099  RH  042%=      5-min Rain = 0
KBR1 211521Z 35004KT 02/M10 A2981 RMK A01 T00161099  RH  042%=      5-min Rain = 0
KBR1 211522Z 35005KT 02/M10 A2981 RMK A01 T00171100  RH  042%=      5-min Rain = 0
KBR1 211523Z 35004KT 02/M10 A2981 RMK A01 T00171101  RH  041%=      5-min Rain = 0
KBR1 211524Z 34004KT 02/M10 A2981 RMK A01 T00181099  RH  041%=      5-min Rain = 0
KBR1 211525Z 34004KT 02/M10 A2981 RMK A01 T00211101  RH  040%=      5-min Rain = 0
KBR1 211526Z 34004KT 02/M10 A298 RMK A01 T00231102  RH  039%=      5-min Rain = 0
KBR1 211527Z 34004KT 03/M10 A298 RMK A01 T00251102  RH  039%=      5-min Rain = 0
KBR1 211528Z 34004KT 03/M11 A298 RMK A01 T00261107  RH  037%=      5-min Rain = 0
KBR1 211529Z 35003KT 03/M10 A298 RMK A01 T00271104  RH  038%=      5-min Rain = 0
KBR1 211530Z 34004KT 03/M10 A298 RMK A01 T00281099  RH  039%=      5-min Rain = 0
KBR1 211531Z 33004KT 03/M10 A298 RMK A01 T00301102  RH  037%=      5-min Rain = 0
KBR1 211532Z 32004KT 03/M11 A298 RMK A01 T00301110  RH  035%=      5-min Rain = 0
KBR1 211533Z 32004KT 03/M11 A298 RMK A01 T00301111  RH  035%=      5-min Rain = 0
KBR1 211534Z 32004KT 03/M11 A298 RMK A01 T00321110  RH  034%=      5-min Rain = 0
KBR1 211535Z 33005KT 03/M11 A298 RMK A01 T00341112  RH  033%=      5-min Rain = 0
KBR1 211536Z 33006KT 03/M11 A298 RMK A01 T00341113  RH  033%=      5-min Rain = 0
KBR1 211537Z 33004KT 03/M12 A298 RMK A01 T00341116  RH  032%=      5-min Rain = 0
KBR1 211538Z 34004KT 03/M12 A298 RMK A01 T00341118  RH  032%=      5-min Rain = 0
KBR1 211539Z 32004KT 04/M12 A298 RMK A01 T00351115  RH  032%=      5-min Rain = 0
KBR1 211540Z 33003KT 04/M12 A298 RMK A01 T00351115  RH  032%=      5-min Rain = 0
KBR1 211541Z 34004KT 04/M11 A298 RMK A01 T00361113  RH  033%=      5-min Rain = 0
KBR1 211542Z 35005KT 04/M11 A298 RMK A01 T00371109  RH  033%=      5-min Rain = 0
KBR1 211543Z 34004KT 04/M11 A298 RMK A01 T00391110  RH  033%=      5-min Rain = 0
KBR1 211544Z 33004KT 04/M11 A298 RMK A01 T00391111  RH  033%=      5-min Rain = 0
KBR1 211545Z 35003KT 04/M11 A298 RMK A01 T00401112  RH  032%=      5-min Rain = 0
KBR1 211546Z 32004KT 04/M11 A2979 RMK A01 T00411113  RH  032%=      5-min Rain = 0
KBR1 211547Z 33004KT 04/M12 A2979 RMK A01 T00411117  RH  031%=      5-min Rain = 0
KBR1 211548Z 34004KT 04/M12 A2979 RMK A01 T00421118  RH  030%=      5-min Rain = 0
KBR1 211549Z 34003KT 04/M12 A2979 RMK A01 T00421119  RH  030%=      5-min Rain = 0
KBR1 211550Z 34003KT 04/M12 A2979 RMK A01 T00421119  RH  030%=      5-min Rain = 0
KBR1 211551Z 36003KT 04/M12 A2979 RMK A01 T00431120  RH  030%=      5-min Rain = 0
KBR1 211552Z 34003KT 04/M12 A2979 RMK A01 T00441118  RH  030%=      5-min Rain = 0
KBR1 211553Z 34003KT 05/M12 A2979 RMK A01 T00461118  RH  029%=      5-min Rain = 0
KBR1 211554Z 34003KT 05/M12 A2979 RMK A01 T00471122  RH  028%=      5-min Rain = 0
KBR1 211555Z 34003KT 05/M12 A2979 RMK A01 T00481120  RH  028%=      5-min Rain = 0
KBR1 211556Z 34003KT 05/M12 A2979 RMK A01 T00501119  RH  028%=      5-min Rain = 0
KBR1 211557Z 32004KT 05/M12 A2979 RMK A01 T00511119  RH  028%=      5-min Rain = 0
KBR1 211558Z 32003KT 05/M12 A2979 RMK A01 T00521122  RH  027%=      5-min Rain = 0
KBR1 211559Z 29004KT 05/M12 A2979 RMK A01 T00541121  RH  027%=      5-min Rain = 0
KBR1 211600Z 31003KT 06/M12 A2979 RMK A01 T00551123  RH  026%=      5-min Rain = 0
KBR1 211601Z 33002KT 05/M12 A2979 RMK A01 T00541124  RH  026%=      5-min Rain = 0
KBR1 211602Z 32002KT 05/M12 A2979 RMK A01 T00541122  RH  027%=      5-min Rain = 0
KBR1 211603Z 34003KT 06/M12 A2979 RMK A01 T00561118  RH  027%=      5-min Rain = 0
KBR1 211604Z 32002KT 06/M12 A2979 RMK A01 T00581120  RH  027%=      5-min Rain = 0
KBR1 211605Z 29003KT 06/M12 A2979 RMK A01 T00591119  RH  027%=      5-min Rain = 0
KBR1 211606Z 28003KT 06/M12 A2979 RMK A01 T00601119  RH  026%=      5-min Rain = 0
KBR1 211607Z 24000KT 06/M12 A2979 RMK A01 T00601122  RH  026%=      5-min Rain = 0
KBR1 211608Z 22000KT 06/M12 A2979 RMK A01 T00601124  RH  025%=      5-min Rain = 0
KBR1 211609Z 17000KT 06/M12 A2979 RMK A01 T00611124  RH  025%=      5-min Rain = 0
KBR1 211610Z 24001KT 06/M12 A2978 RMK A01 T00641121  RH  025%=      5-min Rain = 0
KBR1 211611Z 29002KT 07/M12 A2978 RMK A01 T00661118  RH  026%=      5-min Rain = 0
KBR1 211612Z 32002KT 07/M12 A2978 RMK A01 T00661117  RH  026%=      5-min Rain = 0
KBR1 211613Z 28003KT 07/M12 A2978 RMK A01 T00671116  RH  026%=      5-min Rain = 0
KBR1 211614Z 26003KT 07/M12 A2978 RMK A01 T00671119  RH  025%=      5-min Rain = 0
KBR1 211615Z 23002KT 06/M12 A2978 RMK A01 T00641122  RH  025%=      5-min Rain = 0
KBR1 211616Z 29002KT 06/M12 A2978 RMK A01 T00641120  RH  025%=      5-min Rain = 0
KBR1 211617Z 25003KT 07/M12 A2978 RMK A01 T00651117  RH  026%=      5-min Rain = 0
KBR1 211618Z 24001KT 07/M12 A2978 RMK A01 T00671118  RH  025%=      5-min Rain = 0
KBR1 211619Z 21002KT 07/M12 A2978 RMK A01 T00681116  RH  025%=      5-min Rain = 0
KBR1 211620Z 26003KT 07/M12 A2978 RMK A01 T00691117  RH  025%=      5-min Rain = 0
KBR1 211621Z 16001KT 07/M12 A2978 RMK A01 T00691117  RH  025%=      5-min Rain = 0
KBR1 211622Z 16002KT 07/M12 A2979 RMK A01 T00731115  RH  025%=      5-min Rain = 0
KBR1 211623Z 18003KT 07/M12 A2979 RMK A01 T00741116  RH  025%=      5-min Rain = 0
KBR1 211624Z 19004KT 08/M12 A2979 RMK A01 T00751115  RH  024%=      5-min Rain = 0
KBR1 211625Z 19007KT 08/M11 A2979 RMK A01 T00761113  RH  025%=      5-min Rain = 0
KBR1 211626Z 17009KT 08/M11 A298 RMK A01 T00761114  RH  025%=      5-min Rain = 0
KBR1 211627Z 16012KT 08/M11 A298 RMK A01 T00781113  RH  024%=      5-min Rain = 0
KBR1 211628Z 17011KT 08/M11 A298 RMK A01 T00801114  RH  024%=      5-min Rain = 0
KBR1 211629Z 17011G16KT 08/M12 A298 RMK A01 T00791116  RH  024%=      5-min Rain = 0
KBR1 211630Z 17015KT 08/M12 A298 RMK A01 T00791117  RH  023%=      5-min Rain = 0
KBR1 211631Z 15014KT 08/M12 A298 RMK A01 T00761116  RH  024%=      5-min Rain = 0
KBR1 211632Z 15017KT 07/M10 A298 RMK A01 T00721102  RH  028%=      5-min Rain = 0
KBR1 211633Z 15018KT 07/M10 A298 RMK A01 T00681101  RH  029%=      5-min Rain = 0
KBR1 211634Z 14015KT 06/M10 A2981 RMK A01 T00641101  RH  030%=      5-min Rain = 0
KBR1 211635Z 14015KT 06/M10 A2981 RMK A01 T00611101  RH  030%=      5-min Rain = 0
KBR1 211636Z 15014KT 06/M10 A2981 RMK A01 T00591101  RH  031%=      5-min Rain = 0
KBR1 211637Z 13016KT 06/M10 A2981 RMK A01 T00591100  RH  031%=      5-min Rain = 0
KBR1 211638Z 14014KT 06/M10 A2981 RMK A01 T00591101  RH  031%=      5-min Rain = 0
KBR1 211639Z 13013KT 06/M10 A2981 RMK A01 T00601100  RH  031%=      5-min Rain = 0
KBR1 211640Z 14015KT 06/M10 A2981 RMK A01 T00621100  RH  030%=      5-min Rain = 0
KBR1 211641Z 14015KT 06/M11 A2981 RMK A01 T00581105  RH  030%=      5-min Rain = 0
KBR1 211642Z 14013KT 06/M11 A2981 RMK A01 T00571105  RH  030%=      5-min Rain = 0
KBR1 211643Z 14013KT 06/M11 A2981 RMK A01 T00571105  RH  030%=      5-min Rain = 0
KBR1 211644Z 14012KT 06/M10 A2981 RMK A01 T00581104  RH  030%=      5-min Rain = 0
KBR1 211645Z 13012KT 06/M10 A298 RMK A01 T00621102  RH  030%=      5-min Rain = 0
KBR1 211646Z 13012KT 06/M10 A298 RMK A01 T00641103  RH  029%=      5-min Rain = 0
KBR1 211647Z 13011KT 07/M11 A298 RMK A01 T00651106  RH  028%=      5-min Rain = 0
KBR1 211648Z 13013KT 07/M11 A298 RMK A01 T00661110  RH  027%=      5-min Rain = 0
KBR1 211649Z 14011KT 07/M11 A298 RMK A01 T00651111  RH  027%=      5-min Rain = 0
KBR1 211650Z 13009KT 06/M11 A298 RMK A01 T00631112  RH  027%=      5-min Rain = 0
KBR1 211651Z 14009KT 06/M11 A298 RMK A01 T00631114  RH  027%=      5-min Rain = 0
KBR1 211652Z 15011KT 06/M12 A298 RMK A01 T00641116  RH  026%=      5-min Rain = 0
KBR1 211653Z 15011KT 07/M12 A298 RMK A01 T00651118  RH  026%=      5-min Rain = 0
KBR1 211654Z 14009KT 06/M12 A298 RMK A01 T00641124  RH  025%=      5-min Rain = 0
KBR1 211655Z 14008KT 06/M13 A298 RMK A01 T00631126  RH  025%=      5-min Rain = 0
KBR1 211656Z 14007KT 06/M13 A298 RMK A01 T00601125  RH  025%=      5-min Rain = 0
KBR1 211657Z 14008KT 06/M12 A298 RMK A01 T00601123  RH  025%=      5-min Rain = 0
KBR1 211658Z 13008KT 06/M12 A298 RMK A01 T00611123  RH  025%=      5-min Rain = 0
KBR1 211659Z 15007KT 06/M12 A298 RMK A01 T00621122  RH  025%=      5-min Rain = 0
KBR1 211700Z 16008KT 06/M12 A298 RMK A01 T00641124  RH  025%=      5-min Rain = 0
KBR1 211701Z 18006KT 07/M13 A298 RMK A01 T00651127  RH  024%=      5-min Rain = 0
KBR1 211702Z 14008KT 07/M12 A298 RMK A01 T00651124  RH  024%=      5-min Rain = 0
KBR1 211703Z 14010KT 07/M13 A298 RMK A01 T00661125  RH  024%=      5-min Rain = 0
KBR1 211704Z 15008KT 07/M13 A298 RMK A01 T00661126  RH  024%=      5-min Rain = 0
KBR1 211705Z 16007KT 07/M13 A298 RMK A01 T00661126  RH  024%=      5-min Rain = 0
KBR1 211706Z 15007KT 07/M12 A298 RMK A01 T00681122  RH  024%=      5-min Rain = 0
KBR1 211707Z 13007KT 07/M12 A298 RMK A01 T00731119  RH  024%=      5-min Rain = 0
KBR1 211708Z 14006KT 07/M13 A298 RMK A01 T00721125  RH  023%=      5-min Rain = 0
KBR1 211709Z 15009KT 07/M13 A298 RMK A01 T00711126  RH  023%=      5-min Rain = 0
KBR1 211710Z 16006KT 07/M13 A298 RMK A01 T00711127  RH  023%=      5-min Rain = 0
KBR1 211711Z 13005KT 07/M12 A298 RMK A01 T00711124  RH  023%=      5-min Rain = 0
KBR1 211712Z 15006KT 07/M12 A298 RMK A01 T00721124  RH  023%=      5-min Rain = 0
KBR1 211713Z 16008KT 07/M12 A298 RMK A01 T00721124  RH  023%=      5-min Rain = 0
KBR1 211714Z 15007KT 07/M12 A298 RMK A01 T00711123  RH  024%=      5-min Rain = 0
KBR1 211715Z 16008G13KT 07/M12 A298 RMK A01 T00701124  RH  024%=      5-min Rain = 0
KBR1 211716Z 17008KT 07/M12 A298 RMK A01 T00711124  RH  024%=      5-min Rain = 0
KBR1 211717Z 17009KT 07/M13 A298 RMK A01 T00711125  RH  023%=      5-min Rain = 0
KBR1 211718Z 15010KT 07/M13 A298 RMK A01 T00711126  RH  023%=      5-min Rain = 0
KBR1 211719Z 15008KT 07/M13 A298 RMK A01 T00711127  RH  023%=      5-min Rain = 0
KBR1 211720Z 15006KT 07/M13 A298 RMK A01 T00721125  RH  023%=      5-min Rain = 0
KBR1 211721Z 17005KT 07/M13 A298 RMK A01 T00721125  RH  023%=      5-min Rain = 0
KBR1 211722Z 18005KT 07/M12 A298 RMK A01 T00721123  RH  023%=      5-min Rain = 0
KBR1 211723Z 14006KT 07/M12 A298 RMK A01 T00731122  RH  024%=      5-min Rain = 0
KBR1 211724Z 14010KT 08/M12 A298 RMK A01 T00761119  RH  024%=      5-min Rain = 0
KBR1 211725Z 14009KT 07/M12 A298 RMK A01 T00741124  RH  023%=      5-min Rain = 0
KBR1 211726Z 14008KT 07/M12 A298 RMK A01 T00741123  RH  023%=      5-min Rain = 0
KBR1 211727Z 14009KT 08/M12 A298 RMK A01 T00761121  RH  023%=      5-min Rain = 0
KBR1 211728Z 14009KT 08/M12 A298 RMK A01 T00781121  RH  023%=      5-min Rain = 0
KBR1 211729Z 17009KT 08/M12 A298 RMK A01 T00771122  RH  023%=      5-min Rain = 0
KBR1 211730Z 18009KT 08/M12 A298 RMK A01 T00781121  RH  023%=      5-min Rain = 0
KBR1 211731Z 17009KT 08/M12 A298 RMK A01 T00791119  RH  023%=      5-min Rain = 0
KBR1 211732Z 16008KT 08/M12 A298 RMK A01 T00791119  RH  023%=      5-min Rain = 0
KBR1 211733Z 18006KT 08/M12 A298 RMK A01 T00791120  RH  023%=      5-min Rain = 0
KBR1 211734Z 15010KT 08/M12 A298 RMK A01 T00801119  RH  023%=      5-min Rain = 0
KBR1 211735Z 15008KT 08/M12 A298 RMK A01 T00811116  RH  023%=      5-min Rain = 0
KBR1 211736Z 15006KT 08/M12 A298 RMK A01 T00801116  RH  024%=      5-min Rain = 0
KBR1 211737Z 14008KT 08/M12 A298 RMK A01 T00811115  RH  024%=      5-min Rain = 0
KBR1 211738Z 15009KT 08/M12 A298 RMK A01 T00801116  RH  024%=      5-min Rain = 0
KBR1 211739Z 16009KT 08/M12 A298 RMK A01 T00801115  RH  024%=      5-min Rain = 0
KBR1 211740Z 17007KT 08/M12 A298 RMK A01 T00781117  RH  024%=      5-min Rain = 0
KBR1 211741Z 16008KT 08/M11 A298 RMK A01 T00771114  RH  024%=      5-min Rain = 0
KBR1 211742Z 15008KT 08/M11 A298 RMK A01 T00771113  RH  025%=      5-min Rain = 0
KBR1 211743Z 15009KT 08/M11 A298 RMK A01 T00761114  RH  025%=      5-min Rain = 0
KBR1 211744Z 14007KT 08/M12 A298 RMK A01 T00751115  RH  025%=      5-min Rain = 0
KBR1 211745Z 16005KT 08/M11 A298 RMK A01 T00761113  RH  025%=      5-min Rain = 0
KBR1 211746Z 16004KT 08/M11 A298 RMK A01 T00771114  RH  025%=      5-min Rain = 0
KBR1 211747Z 16008KT 08/M11 A298 RMK A01 T00771112  RH  025%=      5-min Rain = 0
KBR1 211748Z 17009KT 08/M11 A298 RMK A01 T00811105  RH  026%=      5-min Rain = 0
KBR1 211749Z 17007KT 08/M11 A298 RMK A01 T00821106  RH  025%=      5-min Rain = 0
KBR1 211750Z 16008KT 08/M11 A298 RMK A01 T00811107  RH  025%=      5-min Rain = 0
KBR1 211751Z 16009KT 08/M11 A298 RMK A01 T00811106  RH  025%=      5-min Rain = 0
KBR1 211752Z 18007KT 08/M10 A298 RMK A01 T00821104  RH  026%=      5-min Rain = 0
KBR1 211753Z 19008KT 08/M10 A298 RMK A01 T00821104  RH  026%=      5-min Rain = 0
KBR1 211754Z 19008KT 08/M10 A298 RMK A01 T00831104  RH  025%=      5-min Rain = 0
KBR1 211755Z 20006KT 08/M10 A298 RMK A01 T00831104  RH  025%=      5-min Rain = 0
KBR1 211756Z 17007KT 08/M10 A298 RMK A01 T00831103  RH  026%=      5-min Rain = 0
KBR1 211757Z 16006KT 08/M10 A298 RMK A01 T00821103  RH  026%=      5-min Rain = 0
KBR1 211758Z 16007KT 08/M10 A298 RMK A01 T00811103  RH  026%=      5-min Rain = 0
KBR1 211759Z 16008KT 08/M10 A298 RMK A01 T00801103  RH  026%=      5-min Rain = 0
KBR1 211800Z 16007KT 08/M10 A298 RMK A01 T00801102  RH  026%=      5-min Rain = 0
KBR1 211801Z 16006KT 08/M10 A298 RMK A01 T00801103  RH  026%=      5-min Rain = 0
KBR1 211802Z 17007KT 08/M10 A298 RMK A01 T00801102  RH  026%=      5-min Rain = 0
KBR1 211803Z 17007KT 08/M10 A298 RMK A01 T00821100  RH  026%=      5-min Rain = 0
KBR1 211804Z 17005KT 08/M10 A298 RMK A01 T00821102  RH  026%=      5-min Rain = 0
KBR1 211805Z 18006KT 08/M10 A298 RMK A01 T00811103  RH  026%=      5-min Rain = 0
KBR1 211806Z 20008KT 08/M10 A298 RMK A01 T00821101  RH  026%=      5-min Rain = 0
KBR1 211807Z 19008KT 08/M10 A298 RMK A01 T00841099  RH  026%=      5-min Rain = 0
KBR1 211808Z 20008KT 08/M10 A298 RMK A01 T00841100  RH  026%=      5-min Rain = 0
KBR1 211809Z 21009KT 08/M10 A298 RMK A01 T00841102  RH  026%=      5-min Rain = 0
KBR1 211810Z 20008KT 08/M10 A298 RMK A01 T00831101  RH  026%=      5-min Rain = 0
KBR1 211811Z 19007KT 08/M10 A298 RMK A01 T00831100  RH  026%=      5-min Rain = 0
KBR1 211812Z 19008KT 08/M10 A2979 RMK A01 T00841100  RH  026%=      5-min Rain = 0
KBR1 211813Z 18006KT 08/M10 A2979 RMK A01 T00841100  RH  026%=      5-min Rain = 0
KBR1 211814Z 20007KT 09/M10 A2979 RMK A01 T00851098  RH  026%=      5-min Rain = 0
KBR1 211815Z 19005KT 09/M10 A2979 RMK A01 T00871097  RH  026%=      5-min Rain = 0
KBR1 211816Z 20007KT 09/M10 A2979 RMK A01 T00881097  RH  026%=      5-min Rain = 0
KBR1 211817Z 19008KT 09/M10 A2979 RMK A01 T00881097  RH  026%=      5-min Rain = 0
KBR1 211818Z 19007KT 09/M10 A2979 RMK A01 T00881098  RH  026%=      5-min Rain = 0
KBR1 211819Z 18007KT 09/M10 A2979 RMK A01 T00881096  RH  026%=      5-min Rain = 0
KBR1 211820Z 17007KT 09/M10 A2979 RMK A01 T00901095  RH  026%=      5-min Rain = 0
KBR1 211821Z 18006KT 09/M10 A2979 RMK A01 T00901095  RH  026%=      5-min Rain = 0
KBR1 211822Z 20008KT 09/M10 A2979 RMK A01 T00901097  RH  026%=      5-min Rain = 0
KBR1 211823Z 20007KT 09/M10 A2979 RMK A01 T00891098  RH  025%=      5-min Rain = 0
KBR1 211824Z 20005KT 09/M10 A2979 RMK A01 T00871099  RH  026%=      5-min Rain = 0
KBR1 211825Z 21004KT 09/M10 A2979 RMK A01 T00871098  RH  026%=      5-min Rain = 0
KBR1 211826Z 21004KT 09/M10 A2979 RMK A01 T00871098  RH  026%=      5-min Rain = 0
KBR1 211827Z 21006KT 09/M10 A2979 RMK A01 T00871097  RH  026%=      5-min Rain = 0
KBR1 211828Z 20005KT 09/M10 A2979 RMK A01 T00881097  RH  026%=      5-min Rain = 0
KBR1 211829Z 20007KT 09/M10 A2979 RMK A01 T00901095  RH  026%=      5-min Rain = 0
KBR1 211830Z 20007KT 09/M09 A2979 RMK A01 T00921094  RH  026%=      5-min Rain = 0
KBR1 211831Z 21004KT 09/M09 A2979 RMK A01 T00931094  RH  026%=      5-min Rain = 0
KBR1 211832Z 21005KT 09/M09 A2979 RMK A01 T00931094  RH  026%=      5-min Rain = 0
KBR1 211833Z 17005KT 10/M09 A2979 RMK A01 T00951091  RH  026%=      5-min Rain = 0
KBR1 211834Z 16005KT 10/M09 A2979 RMK A01 T00981089  RH  026%=      5-min Rain = 0
KBR1 211835Z 17005KT 10/M09 A2978 RMK A01 T00981092  RH  025%=      5-min Rain = 0
KBR1 211836Z 20009KT 10/M09 A2978 RMK A01 T00981090  RH  025%=      5-min Rain = 0
KBR1 211837Z 21006KT 10/M09 A2978 RMK A01 T00981092  RH  025%=      5-min Rain = 0
KBR1 211838Z 18007KT 10/M09 A2978 RMK A01 T00971092  RH  025%=      5-min Rain = 0
KBR1 211839Z 18006KT 10/M09 A2978 RMK A01 T00981092  RH  025%=      5-min Rain = 0
KBR1 211840Z 20006KT 10/M09 A2978 RMK A01 T00991090  RH  025%=      5-min Rain = 0
KBR1 211841Z 19006G11KT 10/M09 A2978 RMK A01 T01001089  RH  025%=      5-min Rain = 0
KBR1 211842Z 20008KT 10/M09 A2978 RMK A01 T01031089  RH  025%=      5-min Rain = 0
KBR1 211843Z 21006KT 10/M09 A2978 RMK A01 T01031089  RH  025%=      5-min Rain = 0
KBR1 211844Z 20006KT 10/M09 A2978 RMK A01 T01021091  RH  025%=      5-min Rain = 0
KBR1 211845Z 23006KT 10/M09 A2978 RMK A01 T01021090  RH  025%=      5-min Rain = 0
KBR1 211846Z 19005KT 10/M09 A2978 RMK A01 T01021091  RH  025%=      5-min Rain = 0
KBR1 211847Z 19006KT 10/M09 A2978 RMK A01 T01031090  RH  025%=      5-min Rain = 0
KBR1 211848Z 20008KT 11/M09 A2978 RMK A01 T01051089  RH  025%=      5-min Rain = 0
KBR1 211849Z 22006KT 11/M09 A2978 RMK A01 T01091085  RH  025%=      5-min Rain = 0
KBR1 211850Z 22008KT 11/M09 A2978 RMK A01 T01111086  RH  024%=      5-min Rain = 0
KBR1 211851Z 21005KT 11/M09 A2978 RMK A01 T01121086  RH  024%=      5-min Rain = 0
KBR1 211852Z 20004KT 11/M09 A2977 RMK A01 T01121089  RH  024%=      5-min Rain = 0
KBR1 211853Z 22005KT 11/M09 A2977 RMK A01 T01111088  RH  024%=      5-min Rain = 0
KBR1 211854Z 22007KT 11/M09 A2977 RMK A01 T01121088  RH  024%=      5-min Rain = 0
KBR1 211855Z 23008G15KT 11/M09 A2977 RMK A01 T01121088  RH  024%=      5-min Rain = 0
KBR1 211856Z 21012KT 12/M08 A2977 RMK A01 T01161084  RH  024%=      5-min Rain = 0
KBR1 211857Z 19008KT 12/M09 A2977 RMK A01 T01151090  RH  023%=      5-min Rain = 0
KBR1 211858Z 22010KT 11/M09 A2977 RMK A01 T01131088  RH  024%=      5-min Rain = 0
KBR1 211859Z 22009KT 12/M09 A2977 RMK A01 T01151087  RH  023%=      5-min Rain = 0
KBR1 211900Z 22006KT 11/M09 A2977 RMK A01 T01121090  RH  023%=      5-min Rain = 0
KBR1 211901Z 23007KT 11/M09 A2977 RMK A01 T01111090  RH  023%=      5-min Rain = 0
KBR1 211902Z 22005G10KT 11/M09 A2977 RMK A01 T01121091  RH  023%=      5-min Rain = 0
KBR1 211903Z 20007KT 12/M09 A2977 RMK A01 T01181087  RH  023%=      5-min Rain = 0
KBR1 211904Z 18008KT 12/M09 A2977 RMK A01 T01211088  RH  022%=      5-min Rain = 0
KBR1 211905Z 23008KT 12/M09 A2977 RMK A01 T01191090  RH  022%=      5-min Rain = 0
KBR1 211906Z 24008KT 12/M09 A2977 RMK A01 T01171091  RH  022%=      5-min Rain = 0
KBR1 211907Z 24008KT 12/M09 A2977 RMK A01 T01171093  RH  022%=      5-min Rain = 0
KBR1 211908Z 23008KT 12/M09 A2977 RMK A01 T01171093  RH  022%=      5-min Rain = 0
KBR1 211909Z 22010KT 12/M09 A2977 RMK A01 T01171091  RH  022%=      5-min Rain = 0
KBR1 211910Z 22008KT 12/M09 A2976 RMK A01 T01201093  RH  022%=      5-min Rain = 0
KBR1 211911Z 22008KT 12/M09 A2976 RMK A01 T01231088  RH  022%=      5-min Rain = 0
KBR1 211912Z 24010KT 13/M10 A2977 RMK A01 T01251096  RH  021%=      5-min Rain = 0
KBR1 211913Z 24007KT 12/M11 A2976 RMK A01 T01231109  RH  019%=      5-min Rain = 0
KBR1 211914Z 25008KT 12/M11 A2976 RMK A01 T01211106  RH  019%=      5-min Rain = 0
KBR1 211915Z 25012G18KT 12/M10 A2976 RMK A01 T01231101  RH  020%=      5-min Rain = 0
KBR1 211916Z 24010KT 12/M11 A2976 RMK A01 T01231106  RH  019%=      5-min Rain = 0
KBR1 211917Z 23011KT 12/M11 A2976 RMK A01 T01211105  RH  020%=      5-min Rain = 0
KBR1 211918Z 26009KT 12/M11 A2976 RMK A01 T01201107  RH  019%=      5-min Rain = 0
KBR1 211919Z 25011KT 12/M11 A2976 RMK A01 T01201107  RH  019%=      5-min Rain = 0
KBR1 211920Z 24009KT 12/M10 A2976 RMK A01 T01231104  RH  020%=      5-min Rain = 0
KBR1 211921Z 22008KT 12/M10 A2976 RMK A01 T01241103  RH  019%=      5-min Rain = 0
KBR1 211922Z 21009KT 13/M11 A2976 RMK A01 T01271108  RH  018%=      5-min Rain = 0
KBR1 211923Z 22014KT 13/M11 A2975 RMK A01 T01311105  RH  018%=      5-min Rain = 0
KBR1 211924Z 22015KT 13/M11 A2975 RMK A01 T01321106  RH  018%=      5-min Rain = 0
KBR1 211925Z 24014KT 13/M11 A2976 RMK A01 T01331109  RH  018%=      5-min Rain = 0
KBR1 211926Z 25010KT 13/M11 A2976 RMK A01 T01311113  RH  017%=      5-min Rain = 0
KBR1 211927Z 24012KT 13/M11 A2976 RMK A01 T01321106  RH  018%=      5-min Rain = 0
KBR1 211928Z 22012KT 14/M11 A2975 RMK A01 T01351114  RH  017%=      5-min Rain = 0
KBR1 211929Z 22015KT 13/M12 A2975 RMK A01 T01341118  RH  016%=      5-min Rain = 0
KBR1 211930Z 23016KT 14/M12 A2975 RMK A01 T01361117  RH  016%=      5-min Rain = 0
KBR1 211931Z 23012KT 14/M11 A2975 RMK A01 T01391112  RH  016%=      5-min Rain = 0
KBR1 211932Z 23010KT 14/M11 A2975 RMK A01 T01421110  RH  016%=      5-min Rain = 0
KBR1 211933Z 22014KT 14/M11 A2975 RMK A01 T01421113  RH  016%=      5-min Rain = 0
KBR1 211934Z 22014KT 14/M12 A2975 RMK A01 T01351119  RH  016%=      5-min Rain = 0
KBR1 211935Z 22015KT 13/M12 A2975 RMK A01 T01291119  RH  017%=      5-min Rain = 0
KBR1 211936Z 24013KT 13/M12 A2975 RMK A01 T01261119  RH  017%=      5-min Rain = 0
KBR1 211937Z 25013KT 12/M12 A2975 RMK A01 T01221119  RH  017%=      5-min Rain = 0
KBR1 211938Z 25011KT 12/M12 A2975 RMK A01 T01191120  RH  018%=      5-min Rain = 0
KBR1 211939Z 25012KT 12/M12 A2975 RMK A01 T01211115  RH  018%=      5-min Rain = 0
KBR1 211940Z 24012KT 12/M12 A2975 RMK A01 T01221116  RH  018%=      5-min Rain = 0
KBR1 211941Z 25010KT 12/M12 A2975 RMK A01 T01231116  RH  018%=      5-min Rain = 0
KBR1 211942Z 24010KT 12/M11 A2975 RMK A01 T01241114  RH  018%=      5-min Rain = 0
KBR1 211943Z 23009KT 13/M11 A2975 RMK A01 T01261114  RH  018%=      5-min Rain = 0
KBR1 211944Z 24009KT 13/M11 A2975 RMK A01 T01271114  RH  017%=      5-min Rain = 0
KBR1 211945Z 23008KT 13/M11 A2975 RMK A01 T01301111  RH  017%=      5-min Rain = 0
KBR1 211946Z 21010KT 14/M12 A2974 RMK A01 T01351118  RH  016%=      5-min Rain = 0
KBR1 211947Z 22011G16KT 13/M13 A2974 RMK A01 T01331126  RH  015%=      5-min Rain = 0
KBR1 211948Z 23016KT 14/M12 A2974 RMK A01 T01361122  RH  016%=      5-min Rain = 0
KBR1 211949Z 25012KT 14/M12 A2974 RMK A01 T01361123  RH  015%=      5-min Rain = 0
KBR1 211950Z 25011KT 13/M12 A2974 RMK A01 T01341119  RH  016%=      5-min Rain = 0
KBR1 211951Z 25014G19KT 14/M12 A2974 RMK A01 T01351116  RH  016%=      5-min Rain = 0
KBR1 211952Z 25012KT 13/M12 A2974 RMK A01 T01331117  RH  016%=      5-min Rain = 0
KBR1 211953Z 24013KT 13/M12 A2974 RMK A01 T01341121  RH  016%=      5-min Rain = 0
KBR1 211954Z 23013KT 14/M13 A2974 RMK A01 T01391129  RH  014%=      5-min Rain = 0
KBR1 211955Z 23021KT 14/M14 A2974 RMK A01 T01421136  RH  013%=      5-min Rain = 0
KBR1 211956Z 22021KT 14/M15 A2974 RMK A01 T01431146  RH  012%=      5-min Rain = 0
KBR1 211957Z 22016G23KT 14/M15 A2974 RMK A01 T01421147  RH  012%=      5-min Rain = 0
KBR1 211958Z 23022G27KT 15/M14 A2974 RMK A01 T01451143  RH  012%=      5-min Rain = 0
KBR1 211959Z 23021KT 15/M15 A2974 RMK A01 T01451147  RH  012%=      5-min Rain = 0
KBR1 212000Z 23018KT 14/M15 A2974 RMK A01 T01441145  RH  012%=      5-min Rain = 0
KBR1 212001Z 22013KT 15/M15 A2974 RMK A01 T01461145  RH  012%=      5-min Rain = 0
KBR1 212002Z 23014G19KT 15/M14 A2973 RMK A01 T01451144  RH  012%=      5-min Rain = 0
KBR1 212003Z 24020KT 15/M14 A2974 RMK A01 T01511136  RH  012%=      5-min Rain = 0
KBR1 212004Z 24016KT 15/M14 A2974 RMK A01 T01491141  RH  012%=      5-min Rain = 0
KBR1 212005Z 23018KT 15/M14 A2974 RMK A01 T01451140  RH  013%=      5-min Rain = 0
KBR1 212006Z 24015KT 14/M14 A2974 RMK A01 T01441139  RH  013%=      5-min Rain = 0
KBR1 212007Z 24013KT 14/M14 A2973 RMK A01 T01431140  RH  013%=      5-min Rain = 0
KBR1 212008Z 23012KT 14/M14 A2973 RMK A01 T01401141  RH  013%=      5-min Rain = 0
KBR1 212009Z 23014G21KT 15/M13 A2973 RMK A01 T01461134  RH  013%=      5-min Rain = 0
KBR1 212010Z 23014KT 15/M14 A2973 RMK A01 T01471139  RH  013%=      5-min Rain = 0
KBR1 212011Z 21011KT 15/M14 A2973 RMK A01 T01451139  RH  013%=      5-min Rain = 0
KBR1 212012Z 21012KT 15/M13 A2973 RMK A01 T01461133  RH  013%=      5-min Rain = 0
KBR1 212013Z 22012KT 15/M14 A2973 RMK A01 T01451135  RH  013%=      5-min Rain = 0
KBR1 212014Z 23015G20KT 15/M13 A2973 RMK A01 T01461133  RH  013%=      5-min Rain = 0
KBR1 212015Z 23012KT 15/M13 A2973 RMK A01 T01491131  RH  013%=      5-min Rain = 0
KBR1 212016Z 24013KT 15/M13 A2973 RMK A01 T01481134  RH  013%=      5-min Rain = 0
KBR1 212017Z 23011KT 15/M14 A2973 RMK A01 T01451135  RH  013%=      5-min Rain = 0
KBR1 212018Z 24010KT 14/M14 A2973 RMK A01 T01431136  RH  013%=      5-min Rain = 0
KBR1 212019Z 23012KT 14/M13 A2973 RMK A01 T01441133  RH  013%=      5-min Rain = 0
KBR1 212020Z 24015KT 15/M13 A2973 RMK A01 T01481132  RH  013%=      5-min Rain = 0
KBR1 212021Z 23017G22KT 15/M13 A2973 RMK A01 T01501132  RH  013%=      5-min Rain = 0
KBR1 212022Z 23016G23KT 15/M13 A2973 RMK A01 T01461134  RH  013%=      5-min Rain = 0
KBR1 212023Z 24018G23KT 15/M13 A2973 RMK A01 T01451131  RH  014%=      5-min Rain = 0
KBR1 212024Z 25017KT 14/M13 A2973 RMK A01 T01421134  RH  013%=      5-min Rain = 0
KBR1 212025Z 25016KT 14/M13 A2973 RMK A01 T01401132  RH  014%=      5-min Rain = 0
KBR1 212026Z 25019G24KT 14/M13 A2973 RMK A01 T01441129  RH  014%=      5-min Rain = 0
KBR1 212027Z 23017KT 14/M13 A2972 RMK A01 T01441132  RH  014%=      5-min Rain = 0
KBR1 212028Z 24013KT 14/M13 A2972 RMK A01 T01421132  RH  014%=      5-min Rain = 0
KBR1 212029Z 25014G19KT 15/M13 A2972 RMK A01 T01461131  RH  014%=      5-min Rain = 0
KBR1 212030Z 25017G24KT 15/M13 A2972 RMK A01 T01471133  RH  013%=      5-min Rain = 0
KBR1 212031Z 24014KT 15/M13 A2972 RMK A01 T01451133  RH  013%=      5-min Rain = 0
KBR1 212032Z 25013G20KT 15/M13 A2972 RMK A01 T01461130  RH  014%=      5-min Rain = 0
KBR1 212033Z 25020G25KT 15/M13 A2972 RMK A01 T01491130  RH  013%=      5-min Rain = 0
KBR1 212034Z 24018KT 15/M13 A2972 RMK A01 T01471132  RH  013%=      5-min Rain = 0
KBR1 212035Z 24014KT 15/M13 A2972 RMK A01 T01461130  RH  014%=      5-min Rain = 0
KBR1 212036Z 23016KT 15/M13 A2972 RMK A01 T01461129  RH  014%=      5-min Rain = 0
KBR1 212037Z 23011KT 15/M13 A2972 RMK A01 T01481130  RH  013%=      5-min Rain = 0
KBR1 212038Z 24014KT 15/M13 A2972 RMK A01 T01461132  RH  013%=      5-min Rain = 0
KBR1 212039Z 24014KT 15/M13 A2972 RMK A01 T01461130  RH  014%=      5-min Rain = 0
KBR1 212040Z 23012G18KT 15/M13 A2972 RMK A01 T01451131  RH  014%=      5-min Rain = 0
KBR1 212041Z 24013KT 15/M13 A2972 RMK A01 T01451132  RH  013%=      5-min Rain = 0
KBR1 212042Z 22011KT 14/M13 A2972 RMK A01 T01441132  RH  014%=      5-min Rain = 0
KBR1 212043Z 23013KT 15/M13 A2972 RMK A01 T01451128  RH  014%=      5-min Rain = 0
KBR1 212044Z 24015KT 15/M13 A2972 RMK A01 T01451130  RH  014%=      5-min Rain = 0
KBR1 212045Z 23013KT 14/M14 A2972 RMK A01 T01441137  RH  013%=      5-min Rain = 0
KBR1 212046Z 22009KT 14/M14 A2972 RMK A01 T01441141  RH  013%=      5-min Rain = 0
KBR1 212047Z 23010G15KT 15/M14 A2972 RMK A01 T01451142  RH  012%=      5-min Rain = 0
KBR1 212048Z 23010KT 14/M14 A2972 RMK A01 T01441144  RH  012%=      5-min Rain = 0
KBR1 212049Z 24012KT 15/M14 A2972 RMK A01 T01481135  RH  013%=      5-min Rain = 0
KBR1 212050Z 25015G22KT 15/M13 A2972 RMK A01 T01501132  RH  013%=      5-min Rain = 0
KBR1 212051Z 24016KT 15/M14 A2972 RMK A01 T01471138  RH  013%=      5-min Rain = 0
KBR1 212052Z 23014G19KT 15/M14 A2972 RMK A01 T01451138  RH  013%=      5-min Rain = 0
KBR1 212053Z 25016KT 15/M14 A2972 RMK A01 T01451135  RH  013%=      5-min Rain = 0
KBR1 212054Z 23013KT 15/M13 A2972 RMK A01 T01451132  RH  013%=      5-min Rain = 0
KBR1 212055Z 22017KT 15/M13 A2972 RMK A01 T01511127  RH  013%=      5-min Rain = 0
KBR1 212056Z 22014KT 15/M13 A2972 RMK A01 T01521131  RH  013%=      5-min Rain = 0
KBR1 212057Z 23014KT 15/M14 A2972 RMK A01 T01481135  RH  013%=      5-min Rain = 0
KBR1 212058Z 25012KT 15/M14 A2972 RMK A01 T01461135  RH  013%=      5-min Rain = 0
KBR1 212059Z 24010KT 15/M14 A2972 RMK A01 T01471135  RH  013%=      5-min Rain = 0
KBR1 212100Z 24011KT 15/M13 A2972 RMK A01 T01481134  RH  013%=      5-min Rain = 0
KBR1 212101Z 23015G20KT 15/M14 A2972 RMK A01 T01491136  RH  013%=      5-min Rain = 0
KBR1 212102Z 20013G20KT 15/M14 A2971 RMK A01 T01511138  RH  012%=      5-min Rain = 0
KBR1 212103Z 19013KT 15/M14 A2971 RMK A01 T01491139  RH  012%=      5-min Rain = 0
KBR1 212104Z 20014KT 15/M14 A2971 RMK A01 T01471139  RH  013%=      5-min Rain = 0
KBR1 212105Z 25014G19KT 15/M13 A2972 RMK A01 T01491133  RH  013%=      5-min Rain = 0
KBR1 212106Z 26015KT 15/M13 A2972 RMK A01 T01451132  RH  013%=      5-min Rain = 0
KBR1 212107Z 26013KT 14/M13 A2972 RMK A01 T01441131  RH  014%=      5-min Rain = 0
KBR1 212108Z 26012KT 15/M13 A2972 RMK A01 T01461129  RH  014%=      5-min Rain = 0
KBR1 212109Z 27009KT 15/M13 A2972 RMK A01 T01471129  RH  014%=      5-min Rain = 0
KBR1 212110Z 27010KT 15/M13 A2972 RMK A01 T01471129  RH  014%=      5-min Rain = 0
KBR1 212111Z 26010G15KT 15/M13 A2972 RMK A01 T01491127  RH  014%=      5-min Rain = 0
KBR1 212112Z 25011KT 15/M13 A2972 RMK A01 T01501127  RH  014%=      5-min Rain = 0
KBR1 212113Z 24010G15KT 15/M13 A2972 RMK A01 T01501127  RH  014%=      5-min Rain = 0
KBR1 212114Z 24012KT 15/M13 A2972 RMK A01 T01481132  RH  013%=      5-min Rain = 0
KBR1 212115Z 24014G19KT 15/M14 A2972 RMK A01 T01471135  RH  013%=      5-min Rain = 0
KBR1 212116Z 25015KT 15/M13 A2972 RMK A01 T01481132  RH  013%=      5-min Rain = 0
KBR1 212117Z 25013KT 15/M13 A2972 RMK A01 T01471134  RH  013%=      5-min Rain = 0
KBR1 212118Z 25009KT 15/M13 A2971 RMK A01 T01461133  RH  013%=      5-min Rain = 0
KBR1 212119Z 24011KT 15/M13 A2971 RMK A01 T01491132  RH  013%=      5-min Rain = 0
KBR1 212120Z 24016KT 15/M14 A2971 RMK A01 T01511136  RH  013%=      5-min Rain = 0
KBR1 212121Z 23015KT 15/M14 A2971 RMK A01 T01521140  RH  012%=      5-min Rain = 0
KBR1 212122Z 23017KT 16/M14 A2971 RMK A01 T01551138  RH  012%=      5-min Rain = 0
KBR1 212123Z 23014KT 16/M14 A2972 RMK A01 T01551140  RH  012%=      5-min Rain = 0
KBR1 212124Z 22010KT 15/M14 A2971 RMK A01 T01521140  RH  012%=      5-min Rain = 0
KBR1 212125Z 22013G19KT 15/M14 A2971 RMK A01 T01531135  RH  012%=      5-min Rain = 0
KBR1 212126Z 25012G17KT 16/M13 A2971 RMK A01 T01551134  RH  012%=      5-min Rain = 0
KBR1 212127Z 25014KT 15/M14 A2971 RMK A01 T01531136  RH  012%=      5-min Rain = 0
KBR1 212128Z 26016KT 15/M13 A2971 RMK A01 T01521134  RH  013%=      5-min Rain = 0
KBR1 212129Z 24012KT 15/M14 A2971 RMK A01 T01501136  RH  013%=      5-min Rain = 0
KBR1 212130Z 25009KT 15/M14 A2971 RMK A01 T01461142  RH  012%=      5-min Rain = 0
KBR1 212131Z 23012KT 14/M14 A2971 RMK A01 T01431142  RH  013%=      5-min Rain = 0
KBR1 212132Z 25013KT 14/M14 A2972 RMK A01 T01411141  RH  013%=      5-min Rain = 0
KBR1 212133Z 24010KT 14/M14 A2972 RMK A01 T01391142  RH  013%=      5-min Rain = 0
KBR1 212134Z 24012KT 14/M14 A2972 RMK A01 T01381141  RH  013%=      5-min Rain = 0
KBR1 212135Z 23013KT 14/M14 A2971 RMK A01 T01391139  RH  013%=      5-min Rain = 0
KBR1 212136Z 24013KT 14/M14 A2972 RMK A01 T01391140  RH  013%=      5-min Rain = 0
KBR1 212137Z 24008KT 14/M14 A2971 RMK A01 T01401142  RH  013%=      5-min Rain = 0
KBR1 212138Z 24005KT 14/M14 A2971 RMK A01 T01441137  RH  013%=      5-min Rain = 0
KBR1 212139Z 24007KT 15/M14 A2971 RMK A01 T01481138  RH  013%=      5-min Rain = 0
KBR1 212140Z 22010KT 15/M14 A2971 RMK A01 T01491136  RH  013%=      5-min Rain = 0
KBR1 212141Z 21009KT 15/M13 A2971 RMK A01 T01521134  RH  013%=      5-min Rain = 0
KBR1 212142Z 24008KT 15/M13 A2971 RMK A01 T01541134  RH  013%=      5-min Rain = 0
KBR1 212143Z 24006KT 16/M14 A2971 RMK A01 T01551138  RH  012%=      5-min Rain = 0
KBR1 212144Z 25005KT 15/M14 A2971 RMK A01 T01501141  RH  012%=      5-min Rain = 0
KBR1 212145Z 24013G22KT 15/M14 A297 RMK A01 T01521139  RH  012%=      5-min Rain = 0
KBR1 212146Z 22014G19KT 16/M14 A2971 RMK A01 T01561136  RH  012%=      5-min Rain = 0
KBR1 212147Z 23019G24KT 16/M14 A2971 RMK A01 T01601143  RH  011%=      5-min Rain = 0
KBR1 212148Z 22021KT 16/M15 A2971 RMK A01 T01601147  RH  011%=      5-min Rain = 0
KBR1 212149Z 22021KT 16/M15 A2971 RMK A01 T01611148  RH  011%=      5-min Rain = 0
KBR1 212150Z 22021KT 16/M15 A2971 RMK A01 T01601149  RH  011%=      5-min Rain = 0
KBR1 212151Z 20018KT 16/M15 A2971 RMK A01 T01611147  RH  011%=      5-min Rain = 0
KBR1 212152Z 21013G18KT 16/M15 A2971 RMK A01 T01601147  RH  011%=      5-min Rain = 0
KBR1 212153Z 21016KT 16/M15 A2971 RMK A01 T01611146  RH  011%=      5-min Rain = 0
KBR1 212154Z 19017KT 16/M14 A2971 RMK A01 T01641144  RH  011%=      5-min Rain = 0
KBR1 212155Z 20013KT 16/M15 A297 RMK A01 T01621147  RH  011%=      5-min Rain = 0
KBR1 212156Z 21017KT 16/M15 A297 RMK A01 T01611146  RH  011%=      5-min Rain = 0
KBR1 212157Z 22020KT 16/M14 A297 RMK A01 T01621144  RH  011%=      5-min Rain = 0
KBR1 212158Z 22019G24KT 17/M14 A297 RMK A01 T01661137  RH  011%=      5-min Rain = 0
KBR1 212159Z 22019KT 17/M14 A2971 RMK A01 T01671139  RH  011%=      5-min Rain = 0
KBR1 212200Z 22020KT 16/M14 A2971 RMK A01 T01641143  RH  011%=      5-min Rain = 0
KBR1 212201Z 21018KT 16/M15 A2971 RMK A01 T01611146  RH  011%=      5-min Rain = 0
KBR1 212202Z 21015KT 16/M15 A297 RMK A01 T01611145  RH  011%=      5-min Rain = 0
KBR1 212203Z 21016KT 16/M15 A297 RMK A01 T01611146  RH  011%=      5-min Rain = 0
KBR1 212204Z 22018KT 16/M15 A2971 RMK A01 T01611147  RH  011%=      5-min Rain = 0
KBR1 212205Z 23017KT 16/M15 A2971 RMK A01 T01611147  RH  011%=      5-min Rain = 0
KBR1 212206Z 23015KT 16/M15 A2971 RMK A01 T01611148  RH  011%=      5-min Rain = 0
KBR1 212207Z 24017G22KT 16/M15 A2971 RMK A01 T01611147  RH  011%=      5-min Rain = 0
KBR1 212208Z 23018KT 16/M15 A297 RMK A01 T01621146  RH  011%=      5-min Rain = 0
KBR1 212209Z 24019KT 16/M15 A2971 RMK A01 T01641146  RH  011%=      5-min Rain = 0
KBR1 212210Z 23018G24KT 16/M15 A2971 RMK A01 T01641148  RH  010%=      5-min Rain = 0
KBR1 212211Z 22012KT 16/M15 A297 RMK A01 T01621149  RH  011%=      5-min Rain = 0
KBR1 212212Z 23019G24KT 16/M15 A297 RMK A01 T01631146  RH  011%=      5-min Rain = 0
KBR1 212213Z 22021G26KT 16/M14 A297 RMK A01 T01621144  RH  011%=      5-min Rain = 0
KBR1 212214Z 22021KT 16/M15 A2971 RMK A01 T01581146  RH  011%=      5-min Rain = 0
KBR1 212215Z 22015G20KT 16/M14 A2971 RMK A01 T01581144  RH  011%=      5-min Rain = 0
KBR1 212216Z 22018G24KT 16/M14 A2971 RMK A01 T01621140  RH  011%=      5-min Rain = 0
KBR1 212217Z 22019KT 16/M14 A2971 RMK A01 T01641140  RH  011%=      5-min Rain = 0
KBR1 212218Z 22019KT 16/M15 A2971 RMK A01 T01621145  RH  011%=      5-min Rain = 0
KBR1 212219Z 22019KT 16/M15 A2971 RMK A01 T01571147  RH  011%=      5-min Rain = 0
KBR1 212220Z 21017KT 15/M15 A2971 RMK A01 T01541147  RH  011%=      5-min Rain = 0
KBR1 212221Z 21018KT 16/M15 A2971 RMK A01 T01551145  RH  011%=      5-min Rain = 0
KBR1 212222Z 23019KT 16/M14 A2971 RMK A01 T01571144  RH  011%=      5-min Rain = 0
KBR1 212223Z 23018KT 16/M14 A2971 RMK A01 T01591143  RH  011%=      5-min Rain = 0
KBR1 212224Z 23018KT 16/M14 A2971 RMK A01 T01581143  RH  011%=      5-min Rain = 0
KBR1 212225Z 25017KT 16/M14 A2971 RMK A01 T01591142  RH  011%=      5-min Rain = 0
KBR1 212226Z 24018KT 16/M14 A2971 RMK A01 T01591144  RH  011%=      5-min Rain = 0
KBR1 212227Z 22016KT 16/M14 A2971 RMK A01 T01611141  RH  011%=      5-min Rain = 0
KBR1 212228Z 22018KT 16/M14 A2971 RMK A01 T01641142  RH  011%=      5-min Rain = 0
KBR1 212229Z 22017G22KT 16/M14 A2971 RMK A01 T01631143  RH  011%=      5-min Rain = 0
KBR1 212230Z 22016G21KT 16/M15 A2971 RMK A01 T01611145  RH  011%=      5-min Rain = 0
KBR1 212231Z 21022G27KT 16/M14 A2971 RMK A01 T01601141  RH  011%=      5-min Rain = 0
KBR1 212232Z 21019KT 16/M14 A2971 RMK A01 T01571142  RH  011%=      5-min Rain = 0
KBR1 212233Z 20017KT 15/M14 A2971 RMK A01 T01541143  RH  012%=      5-min Rain = 0
KBR1 212234Z 20018KT 15/M14 A2971 RMK A01 T01511142  RH  012%=      5-min Rain = 0
KBR1 212235Z 21015KT 15/M14 A2971 RMK A01 T01491143  RH  012%=      5-min Rain = 0
KBR1 212236Z 22016G21KT 15/M14 A2971 RMK A01 T01481143  RH  012%=      5-min Rain = 0
KBR1 212237Z 22015G21KT 15/M14 A2971 RMK A01 T01481142  RH  012%=      5-min Rain = 0
KBR1 212238Z 23018KT 15/M14 A2972 RMK A01 T01491141  RH  012%=      5-min Rain = 0
KBR1 212239Z 22015KT 15/M14 A2971 RMK A01 T01491141  RH  012%=      5-min Rain = 0
KBR1 212240Z 22014KT 15/M14 A2972 RMK A01 T01491140  RH  012%=      5-min Rain = 0
KBR1 212241Z 22015KT 15/M14 A2972 RMK A01 T01491140  RH  012%=      5-min Rain = 0
KBR1 212242Z 21013KT 15/M14 A2971 RMK A01 T01501140  RH  012%=      5-min Rain = 0
KBR1 212243Z 21014KT 15/M14 A2971 RMK A01 T01491140  RH  012%=      5-min Rain = 0
KBR1 212244Z 22014KT 15/M14 A2971 RMK A01 T01481140  RH  012%=      5-min Rain = 0
KBR1 212245Z 23013KT 15/M14 A2971 RMK A01 T01481140  RH  012%=      5-min Rain = 0
KBR1 212246Z 24016KT 15/M14 A2972 RMK A01 T01481140  RH  012%=      5-min Rain = 0
KBR1 212247Z 24014KT 15/M14 A2972 RMK A01 T01481140  RH  012%=      5-min Rain = 0
KBR1 212248Z 24013KT 15/M14 A2972 RMK A01 T01481140  RH  012%=      5-min Rain = 0
KBR1 212249Z 24009KT 15/M14 A2972 RMK A01 T01461141  RH  012%=      5-min Rain = 0
KBR1 212250Z 23009KT 15/M14 A2972 RMK A01 T01461139  RH  013%=      5-min Rain = 0
KBR1 212251Z 22010KT 15/M14 A2972 RMK A01 T01481139  RH  012%=      5-min Rain = 0
KBR1 212252Z 23010KT 15/M14 A2972 RMK A01 T01491139  RH  012%=      5-min Rain = 0
KBR1 212253Z 23009KT 15/M14 A2972 RMK A01 T01491141  RH  012%=      5-min Rain = 0
KBR1 212254Z 24015KT 15/M14 A2972 RMK A01 T01491139  RH  012%=      5-min Rain = 0
KBR1 212255Z 23015KT 15/M14 A2972 RMK A01 T01481136  RH  013%=      5-min Rain = 0
KBR1 212256Z 22017KT 15/M14 A2971 RMK A01 T01481135  RH  013%=      5-min Rain = 0
KBR1 212257Z 22013G18KT 15/M14 A2971 RMK A01 T01471135  RH  013%=      5-min Rain = 0
KBR1 212258Z 23014KT 15/M13 A2972 RMK A01 T01471134  RH  013%=      5-min Rain = 0
KBR1 212259Z 23017KT 15/M14 A2972 RMK A01 T01471135  RH  013%=      5-min Rain = 0
KBR1 212300Z 23017KT 15/M14 A2972 RMK A01 T01451136  RH  013%=      5-min Rain = 0
KBR1 212301Z 22013KT 14/M14 A2972 RMK A01 T01441136  RH  013%=      5-min Rain = 0
KBR1 212302Z 24012KT 14/M14 A2972 RMK A01 T01441135  RH  013%=      5-min Rain = 0
KBR1 212303Z 24012KT 14/M14 A2972 RMK A01 T01441135  RH  013%=      5-min Rain = 0
KBR1 212304Z 24012G17KT 14/M13 A2972 RMK A01 T01441134  RH  013%=      5-min Rain = 0
KBR1 212305Z 23013KT 14/M14 A2972 RMK A01 T01431135  RH  013%=      5-min Rain = 0
KBR1 212306Z 23010KT 14/M14 A2972 RMK A01 T01431136  RH  013%=      5-min Rain = 0
KBR1 212307Z 24011KT 14/M14 A2972 RMK A01 T01431135  RH  013%=      5-min Rain = 0
KBR1 212308Z 23011KT 14/M14 A2972 RMK A01 T01431135  RH  013%=      5-min Rain = 0
KBR1 212309Z 24010KT 14/M13 A2972 RMK A01 T01431134  RH  013%=      5-min Rain = 0
KBR1 212310Z 23009KT 14/M14 A2972 RMK A01 T01431135  RH  013%=      5-min Rain = 0
KBR1 212311Z 24011KT 14/M13 A2972 RMK A01 T01431134  RH  013%=      5-min Rain = 0
KBR1 212312Z 23011KT 14/M13 A2972 RMK A01 T01441133  RH  013%=      5-min Rain = 0
KBR1 212313Z 24012KT 14/M13 A2972 RMK A01 T01441133  RH  013%=      5-min Rain = 0
KBR1 212314Z 23010KT 14/M14 A2972 RMK A01 T01441135  RH  013%=      5-min Rain = 0
KBR1 212315Z 23009KT 15/M13 A2972 RMK A01 T01461133  RH  013%=      5-min Rain = 0
KBR1 212316Z 24010KT 15/M13 A2972 RMK A01 T01491131  RH  013%=      5-min Rain = 0
KBR1 212317Z 25009KT 15/M13 A2972 RMK A01 T01501134  RH  013%=      5-min Rain = 0
KBR1 212318Z 24011KT 15/M14 A2972 RMK A01 T01491135  RH  013%=      5-min Rain = 0
KBR1 212319Z 26009KT 15/M14 A2972 RMK A01 T01481137  RH  013%=      5-min Rain = 0
KBR1 212320Z 25010KT 15/M14 A2972 RMK A01 T01461138  RH  013%=      5-min Rain = 0
KBR1 212321Z 21012KT 15/M13 A2971 RMK A01 T01451134  RH  013%=      5-min Rain = 0
KBR1 212322Z 23011KT 15/M13 A2971 RMK A01 T01451130  RH  014%=      5-min Rain = 0
KBR1 212323Z 23011KT 15/M13 A2971 RMK A01 T01451127  RH  014%=      5-min Rain = 0
KBR1 212324Z 22012KT 15/M13 A2971 RMK A01 T01461126  RH  014%=      5-min Rain = 0
KBR1 212325Z 21011KT 15/M13 A2971 RMK A01 T01481126  RH  014%=      5-min Rain = 0
KBR1 212326Z 21013KT 15/M12 A2971 RMK A01 T01491124  RH  014%=      5-min Rain = 0
KBR1 212327Z 21012KT 15/M13 A2971 RMK A01 T01491125  RH  014%=      5-min Rain = 0
KBR1 212328Z 22009KT 15/M13 A2971 RMK A01 T01491125  RH  014%=      5-min Rain = 0
KBR1 212329Z 23009KT 15/M12 A2971 RMK A01 T01501124  RH  014%=      5-min Rain = 0
KBR1 212330Z 22010KT 15/M13 A2971 RMK A01 T01511125  RH  014%=      5-min Rain = 0
KBR1 212331Z 23010KT 15/M13 A2971 RMK A01 T01511126  RH  014%=      5-min Rain = 0
KBR1 212332Z 24010KT 15/M13 A2971 RMK A01 T01501127  RH  013%=      5-min Rain = 0
KBR1 212333Z 23010KT 15/M13 A2971 RMK A01 T01491128  RH  014%=      5-min Rain = 0
KBR1 212334Z 23009KT 15/M12 A2971 RMK A01 T01491124  RH  014%=      5-min Rain = 0
KBR1 212335Z 23009KT 15/M12 A2971 RMK A01 T01481122  RH  014%=      5-min Rain = 0
KBR1 212336Z 21009KT 15/M12 A2971 RMK A01 T01471122  RH  014%=      5-min Rain = 0
KBR1 212337Z 22009KT 15/M12 A2971 RMK A01 T01471121  RH  015%=      5-min Rain = 0
KBR1 212338Z 21009KT 15/M12 A2971 RMK A01 T01461120  RH  015%=      5-min Rain = 0
KBR1 212339Z 22010KT 15/M12 A2971 RMK A01 T01461120  RH  015%=      5-min Rain = 0
KBR1 212340Z 22010KT 15/M12 A2971 RMK A01 T01451119  RH  015%=      5-min Rain = 0
KBR1 212341Z 23011KT 14/M12 A2971 RMK A01 T01441118  RH  015%=      5-min Rain = 0
KBR1 212342Z 23010KT 14/M12 A2971 RMK A01 T01441118  RH  015%=      5-min Rain = 0
KBR1 212343Z 23009KT 14/M12 A2971 RMK A01 T01431118  RH  015%=      5-min Rain = 0
KBR1 212344Z 24010KT 14/M12 A2971 RMK A01 T01431118  RH  015%=      5-min Rain = 0
KBR1 212345Z 23011KT 14/M12 A2972 RMK A01 T01421118  RH  015%=      5-min Rain = 0
KBR1 212346Z 24013KT 14/M12 A2972 RMK A01 T01411119  RH  015%=      5-min Rain = 0
KBR1 212347Z 24013KT 14/M12 A2972 RMK A01 T01401120  RH  015%=      5-min Rain = 0
KBR1 212348Z 23011KT 14/M12 A2972 RMK A01 T01401121  RH  015%=      5-min Rain = 0
KBR1 212349Z 23011KT 14/M12 A2972 RMK A01 T01401121  RH  015%=      5-min Rain = 0
KBR1 212350Z 23010KT 14/M12 A2972 RMK A01 T01391121  RH  015%=      5-min Rain = 0
KBR1 212351Z 23009KT 14/M12 A2971 RMK A01 T01391121  RH  015%=      5-min Rain = 0
KBR1 212352Z 23009KT 14/M12 A2972 RMK A01 T01381122  RH  015%=      5-min Rain = 0
KBR1 212353Z 23010KT 14/M12 A2972 RMK A01 T01381123  RH  015%=      5-min Rain = 0
KBR1 212354Z 23009KT 14/M12 A2971 RMK A01 T01381123  RH  015%=      5-min Rain = 0
KBR1 212355Z 23008KT 14/M12 A2971 RMK A01 T01371123  RH  015%=      5-min Rain = 0
KBR1 212356Z 24007KT 14/M12 A2971 RMK A01 T01371124  RH  015%=      5-min Rain = 0
KBR1 212357Z 23008KT 14/M12 A2972 RMK A01 T01361124  RH  015%=      5-min Rain = 0
KBR1 212358Z 24008KT 14/M12 A2972 RMK A01 T01361123  RH  015%=      5-min Rain = 0
KBR1 212359Z 24008KT 14/M12 A2972 RMK A01 T01351124  RH  015%=      5-min Rain = 0
KBR1 220000Z 24008KT 14/M12 A2972 RMK A01 T01351124  RH  015%=      5-min Rain = 0
KBR1 220001Z 24007KT 13/M12 A2972 RMK A01 T01341124  RH  015%=      5-min Rain = 0
KBR1 220002Z 24009KT 13/M12 A2972 RMK A01 T01341123  RH  015%=      5-min Rain = 0
KBR1 220003Z 25008KT 13/M12 A2972 RMK A01 T01331123  RH  016%=      5-min Rain = 0
KBR1 220004Z 24008KT 13/M12 A2972 RMK A01 T01331122  RH  016%=      5-min Rain = 0
KBR1 220005Z 24008KT 13/M12 A2972 RMK A01 T01331121  RH  016%=      5-min Rain = 0
KBR1 220006Z 24007KT 13/M12 A2972 RMK A01 T01321121  RH  016%=      5-min Rain = 0
KBR1 220007Z 24007KT 13/M12 A2972 RMK A01 T01321120  RH  016%=      5-min Rain = 0
KBR1 220008Z 24007KT 13/M12 A2972 RMK A01 T01311121  RH  016%=      5-min Rain = 0
KBR1 220009Z 24006KT 13/M12 A2972 RMK A01 T01301121  RH  016%=      5-min Rain = 0
KBR1 220010Z 25007KT 13/M12 A2972 RMK A01 T01301120  RH  016%=      5-min Rain = 0
KBR1 220011Z 24007KT 13/M12 A2972 RMK A01 T01301120  RH  016%=      5-min Rain = 0
KBR1 220012Z 25007KT 13/M12 A2972 RMK A01 T01291120  RH  016%=      5-min Rain = 0
KBR1 220013Z 25006KT 13/M12 A2972 RMK A01 T01291120  RH  016%=      5-min Rain = 0
KBR1 220014Z 24006KT 13/M12 A2972 RMK A01 T01281121  RH  016%=      5-min Rain = 0
KBR1 220015Z 25006KT 13/M12 A2972 RMK A01 T01271120  RH  017%=      5-min Rain = 0
KBR1 220016Z 25006KT 13/M12 A2972 RMK A01 T01261120  RH  017%=      5-min Rain = 0
KBR1 220017Z 25006KT 13/M12 A2972 RMK A01 T01261120  RH  017%=      5-min Rain = 0
KBR1 220018Z 25005KT 13/M12 A2972 RMK A01 T01261120  RH  017%=      5-min Rain = 0
KBR1 220019Z 25005KT 13/M12 A2972 RMK A01 T01251119  RH  017%=      5-min Rain = 0
KBR1 220020Z 25005KT 13/M12 A2972 RMK A01 T01251120  RH  017%=      5-min Rain = 0
KBR1 220021Z 25005KT 12/M12 A2972 RMK A01 T01241120  RH  017%=      5-min Rain = 0
KBR1 220022Z 25005KT 12/M12 A2972 RMK A01 T01231121  RH  017%=      5-min Rain = 0
KBR1 220023Z 25005KT 12/M12 A2972 RMK A01 T01231120  RH  017%=      5-min Rain = 0
KBR1 220024Z 25004KT 12/M12 A2972 RMK A01 T01221120  RH  017%=      5-min Rain = 0
KBR1 220025Z 25005KT 12/M12 A2972 RMK A01 T01211121  RH  017%=      5-min Rain = 0
KBR1 220026Z 25004KT 12/M12 A2972 RMK A01 T01201121  RH  017%=      5-min Rain = 0
KBR1 220027Z 25004KT 12/M12 A2973 RMK A01 T01201121  RH  017%=      5-min Rain = 0
KBR1 220028Z 25004KT 12/M12 A2973 RMK A01 T01191122  RH  017%=      5-min Rain = 0
KBR1 220029Z 25004KT 12/M12 A2973 RMK A01 T01181122  RH  017%=      5-min Rain = 0
KBR1 220030Z 25004KT 12/M12 A2973 RMK A01 T01181122  RH  017%=      5-min Rain = 0
KBR1 220031Z 25004KT 12/M12 A2973 RMK A01 T01171122  RH  017%=      5-min Rain = 0
KBR1 220032Z 25004KT 12/M12 A2973 RMK A01 T01171122  RH  018%=      5-min Rain = 0
KBR1 220033Z 24004KT 12/M12 A2973 RMK A01 T01161122  RH  018%=      5-min Rain = 0
KBR1 220034Z 24003KT 12/M12 A2973 RMK A01 T01161122  RH  018%=      5-min Rain = 0
KBR1 220035Z 24003KT 12/M12 A2973 RMK A01 T01161122  RH  018%=      5-min Rain = 0
KBR1 220036Z 24003KT 12/M12 A2973 RMK A01 T01161122  RH  018%=      5-min Rain = 0
KBR1 220037Z 23002KT 12/M12 A2973 RMK A01 T01161123  RH  017%=      5-min Rain = 0
KBR1 220038Z 23002KT 12/M12 A2973 RMK A01 T01161123  RH  018%=      5-min Rain = 0
KBR1 220039Z 22002KT 12/M12 A2973 RMK A01 T01161123  RH  017%=      5-min Rain = 0
KBR1 220040Z 21002KT 12/M12 A2973 RMK A01 T01161124  RH  017%=      5-min Rain = 0
KBR1 220041Z 19002KT 12/M12 A2973 RMK A01 T01151124  RH  017%=      5-min Rain = 0
KBR1 220042Z 19002KT 12/M12 A2974 RMK A01 T01161124  RH  017%=      5-min Rain = 0
KBR1 220043Z 18002KT 12/M12 A2974 RMK A01 T01161124  RH  017%=      5-min Rain = 0
KBR1 220044Z 17002KT 12/M13 A2974 RMK A01 T01161125  RH  017%=      5-min Rain = 0
KBR1 220045Z 16002KT 12/M13 A2974 RMK A01 T01161125  RH  017%=      5-min Rain = 0
KBR1 220046Z 15003KT 12/M13 A2974 RMK A01 T01151125  RH  017%=      5-min Rain = 0
KBR1 220047Z 14003KT 11/M13 A2974 RMK A01 T01131125  RH  018%=      5-min Rain = 0
KBR1 220048Z 13005KT 11/M12 A2974 RMK A01 T01111124  RH  018%=      5-min Rain = 0
KBR1 220049Z 11007KT 11/M12 A2974 RMK A01 T01091123  RH  018%=      5-min Rain = 0
KBR1 220050Z 11008KT 11/M12 A2974 RMK A01 T01051122  RH  019%=      5-min Rain = 0
KBR1 220051Z 11009KT 10/M12 A2974 RMK A01 T01031121  RH  019%=      5-min Rain = 0
KBR1 220052Z 11009KT 10/M12 A2974 RMK A01 T01021121  RH  020%=      5-min Rain = 0
KBR1 220053Z 11009KT 10/M12 A2974 RMK A01 T01021120  RH  020%=      5-min Rain = 0
KBR1 220054Z 12007KT 10/M12 A2975 RMK A01 T01021120  RH  020%=      5-min Rain = 0
KBR1 220055Z 12007KT 10/M12 A2975 RMK A01 T01021119  RH  020%=      5-min Rain = 0
KBR1 220056Z 12008KT 10/M12 A2975 RMK A01 T01021119  RH  020%=      5-min Rain = 0
KBR1 220057Z 13007KT 10/M12 A2975 RMK A01 T01031119  RH  020%=      5-min Rain = 0
KBR1 220058Z 12008KT 10/M12 A2975 RMK A01 T01041119  RH  020%=      5-min Rain = 0
KBR1 220059Z 12009KT 11/M12 A2975 RMK A01 T01051118  RH  020%=      5-min Rain = 0
KBR1 220100Z 12008KT 11/M12 A2975 RMK A01 T01051119  RH  019%=      5-min Rain = 0
KBR1 220101Z 12008KT 11/M12 A2975 RMK A01 T01061119  RH  019%=      5-min Rain = 0
KBR1 220102Z 12009KT 11/M12 A2975 RMK A01 T01061119  RH  019%=      5-min Rain = 0
KBR1 220103Z 13008KT 11/M12 A2975 RMK A01 T01051118  RH  019%=      5-min Rain = 0
KBR1 220104Z 12007KT 11/M12 A2975 RMK A01 T01061117  RH  020%=      5-min Rain = 0
KBR1 220105Z 12007KT 11/M12 A2975 RMK A01 T01061117  RH  020%=      5-min Rain = 0
KBR1 220106Z 12007KT 11/M12 A2975 RMK A01 T01061116  RH  020%=      5-min Rain = 0
KBR1 220107Z 12007KT 11/M12 A2975 RMK A01 T01061116  RH  020%=      5-min Rain = 0
KBR1 220108Z 13007KT 11/M12 A2975 RMK A01 T01061116  RH  020%=      5-min Rain = 0
KBR1 220109Z 12006KT 11/M12 A2975 RMK A01 T01061116  RH  020%=      5-min Rain = 0
KBR1 220110Z 12006KT 11/M12 A2975 RMK A01 T01061116  RH  020%=      5-min Rain = 0
KBR1 220111Z 12006KT 11/M12 A2976 RMK A01 T01061115  RH  020%=      5-min Rain = 0
KBR1 220112Z 12006KT 11/M12 A2975 RMK A01 T01051116  RH  020%=      5-min Rain = 0
KBR1 220113Z 13006KT 11/M12 A2975 RMK A01 T01051117  RH  020%=      5-min Rain = 0
KBR1 220114Z 14008KT 11/M12 A2975 RMK A01 T01061115  RH  020%=      5-min Rain = 0
KBR1 220115Z 14007KT 11/M10 A2975 RMK A01 T01091100  RH  022%=      5-min Rain = 0
KBR1 220116Z 15006KT 11/M10 A2976 RMK A01 T01141097  RH  022%=      5-min Rain = 0
KBR1 220117Z 16007KT 12/M10 A2976 RMK A01 T01161101  RH  021%=      5-min Rain = 0
KBR1 220118Z 15006KT 12/M11 A2976 RMK A01 T01171110  RH  019%=      5-min Rain = 0
KBR1 220119Z 14004KT 12/M11 A2976 RMK A01 T01171112  RH  019%=      5-min Rain = 0
KBR1 220120Z 14004KT 12/M11 A2976 RMK A01 T01151112  RH  019%=      5-min Rain = 0
KBR1 220121Z 11004KT 11/M11 A2976 RMK A01 T01141111  RH  020%=      5-min Rain = 0
KBR1 220122Z 09005KT 11/M11 A2976 RMK A01 T01131109  RH  020%=      5-min Rain = 0
KBR1 220123Z 12004KT 11/M11 A2976 RMK A01 T01111108  RH  020%=      5-min Rain = 0
KBR1 220124Z 12005KT 11/M10 A2976 RMK A01 T01111103  RH  021%=      5-min Rain = 0
KBR1 220125Z 10003KT 11/M11 A2976 RMK A01 T01121109  RH  020%=      5-min Rain = 0
KBR1 220126Z 16003KT 11/M11 A2976 RMK A01 T01121110  RH  020%=      5-min Rain = 0
KBR1 220127Z 14003KT 11/M11 A2976 RMK A01 T01111112  RH  020%=      5-min Rain = 0
KBR1 220128Z 14004KT 11/M11 A2976 RMK A01 T01101113  RH  020%=      5-min Rain = 0
KBR1 220129Z 13004KT 11/M11 A2976 RMK A01 T01101114  RH  020%=      5-min Rain = 0
KBR1 220130Z 14005KT 11/M11 A2976 RMK A01 T01101113  RH  020%=      5-min Rain = 0
KBR1 220131Z 15007KT 11/M10 A2976 RMK A01 T01111096  RH  022%=      5-min Rain = 0
KBR1 220132Z 14006KT 11/M09 A2976 RMK A01 T01141085  RH  024%=      5-min Rain = 0
KBR1 220133Z 14007KT 12/M08 A2976 RMK A01 T01161076  RH  025%=      5-min Rain = 0
KBR1 220134Z 14006KT 12/M07 A2976 RMK A01 T01171072  RH  026%=      5-min Rain = 0
KBR1 220135Z 15005KT 12/M07 A2976 RMK A01 T01171071  RH  026%=      5-min Rain = 0
KBR1 220136Z 16007KT 12/M06 A2976 RMK A01 T01161064  RH  028%=      5-min Rain = 0
KBR1 220137Z 15007KT 12/M06 A2976 RMK A01 T01161057  RH  029%=      5-min Rain = 0
KBR1 220138Z 15008KT 12/M05 A2976 RMK A01 T01171048  RH  031%=      5-min Rain = 0
KBR1 220139Z 14012KT 12/M04 A2976 RMK A01 T01201041  RH  032%=      5-min Rain = 0
KBR1 220140Z 15013KT 12/M03 A2976 RMK A01 T01241034  RH  033%=      5-min Rain = 0
KBR1 220141Z 15011KT 13/M03 A2976 RMK A01 T01271034  RH  032%=      5-min Rain = 0
KBR1 220142Z 14010KT 13/M04 A2976 RMK A01 T01271036  RH  032%=      5-min Rain = 0
KBR1 220143Z 13008KT 13/M04 A2976 RMK A01 T01261036  RH  032%=      5-min Rain = 0
KBR1 220144Z 13008KT 13/M04 A2976 RMK A01 T01251039  RH  032%=      5-min Rain = 0
KBR1 220145Z 13009KT 12/M04 A2976 RMK A01 T01241041  RH  031%=      5-min Rain = 0
KBR1 220146Z 13010KT 12/M04 A2977 RMK A01 T01241041  RH  031%=      5-min Rain = 0
KBR1 220147Z 13011KT 12/M04 A2976 RMK A01 T01231040  RH  032%=      5-min Rain = 0
KBR1 220148Z 13012G18KT 12/M04 A2976 RMK A01 T01231038  RH  032%=      5-min Rain = 0
KBR1 220149Z 14016KT 13/M03 A2976 RMK A01 T01251033  RH  033%=      5-min Rain = 0
KBR1 220150Z 13017G22KT 13/M03 A2976 RMK A01 T01261031  RH  033%=      5-min Rain = 0
KBR1 220151Z 14017KT 13/M03 A2976 RMK A01 T01261028  RH  034%=      5-min Rain = 0
KBR1 220152Z 13012KT 13/M03 A2977 RMK A01 T01261028  RH  034%=      5-min Rain = 0
KBR1 220153Z 12011KT 13/M03 A2976 RMK A01 T01251029  RH  034%=      5-min Rain = 0
KBR1 220154Z 14012KT 12/M03 A2977 RMK A01 T01241028  RH  034%=      5-min Rain = 0
KBR1 220155Z 14014KT 12/M03 A2977 RMK A01 T01241028  RH  035%=      5-min Rain = 0
KBR1 220156Z 15014KT 12/M03 A2977 RMK A01 T01241025  RH  036%=      5-min Rain = 0
KBR1 220157Z 12010KT 12/M03 A2977 RMK A01 T01241026  RH  035%=      5-min Rain = 0
KBR1 220158Z 12008KT 12/M03 A2977 RMK A01 T01231031  RH  034%=      5-min Rain = 0
KBR1 220159Z 12011KT 12/M03 A2977 RMK A01 T01211030  RH  035%=      5-min Rain = 0
KBR1 220200Z 13011KT 12/M03 A2977 RMK A01 T01211027  RH  036%=      5-min Rain = 0
KBR1 220201Z 13011KT 12/M03 A2977 RMK A01 T01201028  RH  035%=      5-min Rain = 0
KBR1 220202Z 13009KT 12/M03 A2977 RMK A01 T01201027  RH  036%=      5-min Rain = 0
KBR1 220203Z 14016KT 12/M02 A2977 RMK A01 T01191024  RH  037%=      5-min Rain = 0
KBR1 220204Z 14013KT 12/M02 A2977 RMK A01 T01201020  RH  038%=      5-min Rain = 0
KBR1 220205Z 14014KT 12/M02 A2977 RMK A01 T01201019  RH  038%=      5-min Rain = 0
KBR1 220206Z 14013KT 12/M02 A2977 RMK A01 T01211018  RH  038%=      5-min Rain = 0
KBR1 220207Z 13014KT 12/M02 A2977 RMK A01 T01201017  RH  038%=      5-min Rain = 0
KBR1 220208Z 14017KT 12/M02 A2977 RMK A01 T01201017  RH  039%=      5-min Rain = 0
KBR1 220209Z 15012KT 12/M02 A2977 RMK A01 T01201016  RH  039%=      5-min Rain = 0
KBR1 220210Z 15010KT 12/M02 A2977 RMK A01 T01201017  RH  039%=      5-min Rain = 0
KBR1 220211Z 14012KT 12/M02 A2977 RMK A01 T01191017  RH  039%=      5-min Rain = 0
KBR1 220212Z 14010KT 12/M02 A2977 RMK A01 T01181017  RH  039%=      5-min Rain = 0
KBR1 220213Z 14011KT 12/M02 A2977 RMK A01 T01181017  RH  039%=      5-min Rain = 0
KBR1 220214Z 14011KT 12/M02 A2977 RMK A01 T01181016  RH  039%=      5-min Rain = 0
KBR1 220215Z 14010KT 12/M02 A2977 RMK A01 T01181016  RH  039%=      5-min Rain = 0
KBR1 220216Z 15009KT 12/M02 A2977 RMK A01 T01171016  RH  039%=      5-min Rain = 0
KBR1 220217Z 14009KT 12/M02 A2977 RMK A01 T01171016  RH  040%=      5-min Rain = 0
KBR1 220218Z 15008KT 12/M02 A2977 RMK A01 T01161017  RH  040%=      5-min Rain = 0
KBR1 220219Z 15007KT 12/M02 A2978 RMK A01 T01151016  RH  040%=      5-min Rain = 0
KBR1 220220Z 15007KT 12/M02 A2978 RMK A01 T01151017  RH  040%=      5-min Rain = 0
KBR1 220221Z 14008KT 12/M02 A2978 RMK A01 T01151017  RH  040%=      5-min Rain = 0
KBR1 220222Z 14011KT 11/M02 A2977 RMK A01 T01141016  RH  040%=      5-min Rain = 0
KBR1 220223Z 13011KT 11/M02 A2977 RMK A01 T01141015  RH  041%=      5-min Rain = 0
KBR1 220224Z 12009KT 11/M02 A2977 RMK A01 T01141015  RH  040%=      5-min Rain = 0
KBR1 220225Z 13011KT 11/M02 A2977 RMK A01 T01141015  RH  041%=      5-min Rain = 0
KBR1 220226Z 13010KT 11/M02 A2977 RMK A01 T01141015  RH  041%=      5-min Rain = 0
KBR1 220227Z 13010KT 11/M02 A2977 RMK A01 T01141015  RH  041%=      5-min Rain = 0
KBR1 220228Z 14009KT 11/M02 A2977 RMK A01 T01141015  RH  041%=      5-min Rain = 0
KBR1 220229Z 15010KT 11/M02 A2978 RMK A01 T01141015  RH  041%=      5-min Rain = 0
KBR1 220230Z 15007KT 11/M02 A2978 RMK A01 T01141015  RH  041%=      5-min Rain = 0
KBR1 220231Z 16007KT 11/M02 A2978 RMK A01 T01141015  RH  041%=      5-min Rain = 0
KBR1 220232Z 17008KT 11/M02 A2978 RMK A01 T01131016  RH  041%=      5-min Rain = 0
KBR1 220233Z 16009KT 11/M02 A2978 RMK A01 T01121016  RH  041%=      5-min Rain = 0
KBR1 220234Z 17009KT 11/M02 A2978 RMK A01 T01121015  RH  041%=      5-min Rain = 0
KBR1 220235Z 15015G24KT 11/M02 A2978 RMK A01 T01121015  RH  041%=      5-min Rain = 0
KBR1 220236Z 16016G21KT 11/M01 A2978 RMK A01 T01131014  RH  041%=      5-min Rain = 0
KBR1 220237Z 15016KT 11/M01 A2978 RMK A01 T01141014  RH  041%=      5-min Rain = 0
KBR1 220238Z 15015KT 12/M01 A2978 RMK A01 T01151014  RH  041%=      5-min Rain = 0
KBR1 220239Z 16014KT 12/M01 A2978 RMK A01 T01151014  RH  041%=      5-min Rain = 0
KBR1 220240Z 15015G20KT 12/M01 A2978 RMK A01 T01151013  RH  041%=      5-min Rain = 0
KBR1 220241Z 15013KT 11/M01 A2978 RMK A01 T01141013  RH  041%=      5-min Rain = 0
KBR1 220242Z 15016KT 11/M01 A2978 RMK A01 T01141013  RH  041%=      5-min Rain = 0
KBR1 220243Z 14015KT 11/M01 A2978 RMK A01 T01141013  RH  041%=      5-min Rain = 0
KBR1 220244Z 14015KT 11/M01 A2978 RMK A01 T01131013  RH  041%=      5-min Rain = 0
KBR1 220245Z 14018G23KT 11/M01 A2978 RMK A01 T01131013  RH  042%=      5-min Rain = 0
KBR1 220246Z 14017G23KT 11/M01 A2978 RMK A01 T01131013  RH  042%=      5-min Rain = 0
KBR1 220247Z 14020KT 11/M01 A2978 RMK A01 T01121012  RH  042%=      5-min Rain = 0
KBR1 220248Z 14021G26KT 11/M01 A2978 RMK A01 T01121012  RH  042%=      5-min Rain = 0
KBR1 220249Z 14019KT 11/M01 A2978 RMK A01 T01121012  RH  042%=      5-min Rain = 0
KBR1 220250Z 14016KT 11/M01 A2978 RMK A01 T01121012  RH  042%=      5-min Rain = 0
KBR1 220251Z 15013G19KT 11/M01 A2978 RMK A01 T01111012  RH  042%=      5-min Rain = 0
KBR1 220252Z 14018KT 11/M01 A2978 RMK A01 T01101012  RH  043%=      5-min Rain = 0
KBR1 220253Z 14015KT 11/M01 A2978 RMK A01 T01101012  RH  043%=      5-min Rain = 0
KBR1 220254Z 14016KT 11/M01 A2978 RMK A01 T01101012  RH  043%=      5-min Rain = 0
KBR1 220255Z 14015KT 11/M01 A2978 RMK A01 T01091012  RH  043%=      5-min Rain = 0
KBR1 220256Z 14016KT 11/M01 A2978 RMK A01 T01091012  RH  043%=      5-min Rain = 0
KBR1 220257Z 14012KT 11/M01 A2978 RMK A01 T01091012  RH  043%=      5-min Rain = 0
KBR1 220258Z 13013KT 11/M01 A2978 RMK A01 T01081012  RH  043%=      5-min Rain = 0
KBR1 220259Z 14015KT 11/M01 A2978 RMK A01 T01071012  RH  043%=      5-min Rain = 0
KBR1 220300Z 14014KT 11/M01 A2978 RMK A01 T01071012  RH  044%=      5-min Rain = 0
KBR1 220301Z 14015KT 11/M01 A2979 RMK A01 T01071012  RH  044%=      5-min Rain = 0
KBR1 220302Z 14014KT 11/M01 A2979 RMK A01 T01071011  RH  044%=      5-min Rain = 0
KBR1 220303Z 15016KT 11/M01 A2979 RMK A01 T01071011  RH  044%=      5-min Rain = 0
KBR1 220304Z 14017KT 11/M01 A2979 RMK A01 T01061011  RH  044%=      5-min Rain = 0
KBR1 220305Z 14018KT 11/M01 A2979 RMK A01 T01061011  RH  044%=      5-min Rain = 0
KBR1 220306Z 14015KT 11/M01 A2979 RMK A01 T01061011  RH  044%=      5-min Rain = 0
KBR1 220307Z 14017KT 11/M01 A2979 RMK A01 T01061011  RH  044%=      5-min Rain = 0
KBR1 220308Z 14016KT 11/M01 A2979 RMK A01 T01061011  RH  044%=      5-min Rain = 0
KBR1 220309Z 14015KT 11/M01 A2979 RMK A01 T01051011  RH  044%=      5-min Rain = 0
KBR1 220310Z 14014KT 11/M01 A2979 RMK A01 T01051011  RH  044%=      5-min Rain = 0
KBR1 220311Z 14014KT 10/M01 A2979 RMK A01 T01041011  RH  044%=      5-min Rain = 0
KBR1 220312Z 14013KT 10/M01 A2979 RMK A01 T01041012  RH  045%=      5-min Rain = 0
KBR1 220313Z 14014KT 10/M01 A2979 RMK A01 T01031012  RH  045%=      5-min Rain = 0
KBR1 220314Z 14013KT 10/M01 A2979 RMK A01 T01031012  RH  045%=      5-min Rain = 0
KBR1 220315Z 13013KT 10/M01 A2979 RMK A01 T01021012  RH  045%=      5-min Rain = 0
KBR1 220316Z 13014KT 10/M01 A2979 RMK A01 T01021012  RH  045%=      5-min Rain = 0
KBR1 220317Z 13012KT 10/M01 A298 RMK A01 T01011012  RH  045%=      5-min Rain = 0
KBR1 220318Z 13013KT 10/M01 A298 RMK A01 T01001012  RH  045%=      5-min Rain = 0
KBR1 220319Z 13010G15KT 10/M01 A298 RMK A01 T01001013  RH  045%=      5-min Rain = 0
KBR1 220320Z 13011KT 10/M01 A298 RMK A01 T00981013  RH  046%=      5-min Rain = 0
KBR1 220321Z 12012KT 10/M01 A298 RMK A01 T00981013  RH  046%=      5-min Rain = 0
KBR1 220322Z 11011KT 10/M01 A298 RMK A01 T00971013  RH  046%=      5-min Rain = 0
KBR1 220323Z 12010KT 10/M01 A298 RMK A01 T00961013  RH  046%=      5-min Rain = 0
KBR1 220324Z 11011KT 10/M01 A298 RMK A01 T00951014  RH  046%=      5-min Rain = 0
KBR1 220325Z 11011KT 09/M01 A298 RMK A01 T00941014  RH  047%=      5-min Rain = 0
KBR1 220326Z 12013KT 09/M01 A298 RMK A01 T00931014  RH  047%=      5-min Rain = 0
KBR1 220327Z 11012KT 09/M01 A298 RMK A01 T00931013  RH  047%=      5-min Rain = 0
KBR1 220328Z 11011KT 09/M01 A298 RMK A01 T00921014  RH  047%=      5-min Rain = 0
KBR1 220329Z 11012KT 09/M01 A298 RMK A01 T00911014  RH  048%=      5-min Rain = 0
KBR1 220330Z 11014KT 09/M02 A298 RMK A01 T00901015  RH  048%=      5-min Rain = 0
KBR1 220331Z 12015KT 09/M01 A298 RMK A01 T00901014  RH  048%=      5-min Rain = 0
KBR1 220332Z 13013G18KT 09/M01 A2981 RMK A01 T00911013  RH  048%=      5-min Rain = 0
KBR1 220333Z 13016G21KT 09/M01 A2981 RMK A01 T00911013  RH  048%=      5-min Rain = 0
KBR1 220334Z 13014KT 09/M01 A2981 RMK A01 T00911013  RH  048%=      5-min Rain = 0
KBR1 220335Z 13011KT 09/M01 A2981 RMK A01 T00921013  RH  048%=      5-min Rain = 0
KBR1 220336Z 13009KT 09/M01 A2981 RMK A01 T00911013  RH  048%=      5-min Rain = 0
KBR1 220337Z 13011KT 09/M01 A2981 RMK A01 T00901013  RH  048%=      5-min Rain = 0
KBR1 220338Z 13013KT 09/M01 A2981 RMK A01 T00901013  RH  048%=      5-min Rain = 0
KBR1 220339Z 13013KT 09/M01 A2981 RMK A01 T00901013  RH  048%=      5-min Rain = 0
KBR1 220340Z 13016KT 09/M01 A2981 RMK A01 T00901013  RH  048%=      5-min Rain = 0
KBR1 220341Z 13016G21KT 09/M01 A2981 RMK A01 T00901014  RH  048%=      5-min Rain = 0
KBR1 220342Z 14017G23KT 09/M01 A2981 RMK A01 T00901014  RH  048%=      5-min Rain = 0
KBR1 220343Z 13018G23KT 09/M01 A2981 RMK A01 T00901014  RH  048%=      5-min Rain = 0
KBR1 220344Z 13020KT 09/M01 A2981 RMK A01 T00901014  RH  048%=      5-min Rain = 0
KBR1 220345Z 14016KT 09/M02 A2981 RMK A01 T00901015  RH  048%=      5-min Rain = 0
KBR1 220346Z 13014G20KT 09/M02 A2982 RMK A01 T00891015  RH  048%=      5-min Rain = 0
KBR1 220347Z 13012KT 09/M02 A2982 RMK A01 T00881016  RH  048%=      5-min Rain = 0
KBR1 220348Z 12014KT 09/M02 A2982 RMK A01 T00871016  RH  048%=      5-min Rain = 0
KBR1 220349Z 14015KT 09/M02 A2982 RMK A01 T00861017  RH  048%=      5-min Rain = 0
KBR1 220350Z 13015KT 09/M02 A2982 RMK A01 T00851018  RH  048%=      5-min Rain = 0
KBR1 220351Z 14016G22KT 08/M02 A2982 RMK A01 T00841020  RH  048%=      5-min Rain = 0
KBR1 220352Z 12012KT 08/M02 A2982 RMK A01 T00841020  RH  048%=      5-min Rain = 0
KBR1 220353Z 13013KT 08/M02 A2982 RMK A01 T00831022  RH  048%=      5-min Rain = 0
KBR1 220354Z 14017G22KT 08/M02 A2982 RMK A01 T00811023  RH  048%=      5-min Rain = 0
KBR1 220355Z 13017KT 08/M02 A2982 RMK A01 T00811023  RH  048%=      5-min Rain = 0
KBR1 220356Z 13017G23KT 08/M02 A2982 RMK A01 T00811024  RH  048%=      5-min Rain = 0
KBR1 220357Z 13014G19KT 08/M03 A2982 RMK A01 T00811025  RH  047%=      5-min Rain = 0
KBR1 220358Z 13013KT 08/M03 A2983 RMK A01 T00811025  RH  047%=      5-min Rain = 0
KBR1 220359Z 14015KT 08/M03 A2983 RMK A01 T00791026  RH  047%=      5-min Rain = 0
KBR1 220400Z 13015KT 08/M03 A2983 RMK A01 T00791027  RH  047%=      5-min Rain = 0
KBR1 220401Z 13015KT 08/M03 A2983 RMK A01 T00791027  RH  047%=      5-min Rain = 0
KBR1 220402Z 14017G23KT 08/M03 A2983 RMK A01 T00781028  RH  047%=      5-min Rain = 0
KBR1 220403Z 14018KT 08/M03 A2983 RMK A01 T00781028  RH  047%=      5-min Rain = 0
KBR1 220404Z 14018KT 08/M03 A2983 RMK A01 T00781029  RH  047%=      5-min Rain = 0
KBR1 220405Z 13016KT 08/M03 A2983 RMK A01 T00771029  RH  047%=      5-min Rain = 0
KBR1 220406Z 13014KT 08/M03 A2983 RMK A01 T00771029  RH  047%=      5-min Rain = 0
KBR1 220407Z 13019KT 08/M03 A2983 RMK A01 T00761030  RH  047%=      5-min Rain = 0
KBR1 220408Z 15020KT 08/M03 A2983 RMK A01 T00761030  RH  047%=      5-min Rain = 0
KBR1 220409Z 14020KT 08/M03 A2984 RMK A01 T00761030  RH  047%=      5-min Rain = 0
KBR1 220410Z 14019KT 08/M03 A2984 RMK A01 T00751030  RH  047%=      5-min Rain = 0
KBR1 220411Z 14020KT 08/M03 A2984 RMK A01 T00751030  RH  047%=      5-min Rain = 0
KBR1 220412Z 15015G21KT 07/M03 A2984 RMK A01 T00741031  RH  047%=      5-min Rain = 0
KBR1 220413Z 14019G24KT 07/M03 A2984 RMK A01 T00741031  RH  047%=      5-min Rain = 0
KBR1 220414Z 13018KT 07/M03 A2984 RMK A01 T00731031  RH  048%=      5-min Rain = 0
KBR1 220415Z 14019KT 07/M03 A2984 RMK A01 T00731031  RH  048%=      5-min Rain = 0
KBR1 220416Z 14017KT 07/M03 A2984 RMK A01 T00731031  RH  048%=      5-min Rain = 0
KBR1 220417Z 14015KT 07/M03 A2984 RMK A01 T00721031  RH  048%=      5-min Rain = 0
KBR1 220418Z 14013KT 07/M03 A2984 RMK A01 T00721031  RH  048%=      5-min Rain = 0
KBR1 220419Z 14013KT 07/M03 A2984 RMK A01 T00711031  RH  048%=      5-min Rain = 0
KBR1 220420Z 13016G21KT 07/M03 A2984 RMK A01 T00701031  RH  048%=      5-min Rain = 0
KBR1 220421Z 13017KT 07/M03 A2984 RMK A01 T00701032  RH  049%=      5-min Rain = 0
KBR1 220422Z 14015KT 07/M03 A2984 RMK A01 T00691032  RH  049%=      5-min Rain = 0
KBR1 220423Z 14015G20KT 07/M03 A2984 RMK A01 T00681032  RH  049%=      5-min Rain = 0
KBR1 220424Z 14013G19KT 07/M03 A2984 RMK A01 T00681032  RH  049%=      5-min Rain = 0
KBR1 220425Z 14014KT 07/M03 A2984 RMK A01 T00671033  RH  049%=      5-min Rain = 0
KBR1 220426Z 14015KT 07/M03 A2985 RMK A01 T00671032  RH  049%=      5-min Rain = 0
KBR1 220427Z 13013KT 07/M03 A2985 RMK A01 T00661033  RH  049%=      5-min Rain = 0
KBR1 220428Z 15014KT 07/M03 A2985 RMK A01 T00661033  RH  049%=      5-min Rain = 0
KBR1 220429Z 14016KT 07/M03 A2985 RMK A01 T00651033  RH  049%=      5-min Rain = 0
KBR1 220430Z 14011KT 07/M03 A2985 RMK A01 T00651033  RH  050%=      5-min Rain = 0
KBR1 220431Z 15018KT 07/M03 A2985 RMK A01 T00651033  RH  050%=      5-min Rain = 0
KBR1 220432Z 14015KT 06/M03 A2985 RMK A01 T00641033  RH  050%=      5-min Rain = 0
KBR1 220433Z 15013KT 07/M03 A2985 RMK A01 T00651033  RH  049%=      5-min Rain = 0
KBR1 220434Z 15011KT 06/M03 A2986 RMK A01 T00641034  RH  050%=      5-min Rain = 0
KBR1 220435Z 15014KT 06/M03 A2986 RMK A01 T00631034  RH  050%=      5-min Rain = 0
KBR1 220436Z 15012KT 06/M03 A2986 RMK A01 T00631034  RH  050%=      5-min Rain = 0
KBR1 220437Z 14010KT 06/M03 A2986 RMK A01 T00621034  RH  050%=      5-min Rain = 0
KBR1 220438Z 14010KT 06/M03 A2986 RMK A01 T00611034  RH  050%=      5-min Rain = 0
KBR1 220439Z 15014KT 06/M03 A2986 RMK A01 T00611034  RH  050%=      5-min Rain = 0
KBR1 220440Z 16014KT 06/M03 A2986 RMK A01 T00621034  RH  050%=      5-min Rain = 0
KBR1 220441Z 14009KT 06/M03 A2986 RMK A01 T00621034  RH  050%=      5-min Rain = 0
KBR1 220442Z 14010KT 06/M04 A2986 RMK A01 T00611035  RH  050%=      5-min Rain = 0
KBR1 220443Z 15010KT 06/M04 A2986 RMK A01 T00601036  RH  050%=      5-min Rain = 0
KBR1 220444Z 14012KT 06/M04 A2986 RMK A01 T00591036  RH  051%=      5-min Rain = 0
KBR1 220445Z 14013KT 06/M04 A2986 RMK A01 T00591036  RH  051%=      5-min Rain = 0
KBR1 220446Z 14014KT 06/M04 A2986 RMK A01 T00601035  RH  050%=      5-min Rain = 0
KBR1 220447Z 15011KT 06/M04 A2986 RMK A01 T00601036  RH  050%=      5-min Rain = 0
KBR1 220448Z 14011KT 06/M04 A2986 RMK A01 T00601035  RH  050%=      5-min Rain = 0
KBR1 220449Z 15009KT 06/M04 A2986 RMK A01 T00601036  RH  050%=      5-min Rain = 0
KBR1 220450Z 15009KT 06/M04 A2986 RMK A01 T00591036  RH  051%=      5-min Rain = 0
KBR1 220451Z 14009KT 06/M04 A2986 RMK A01 T00581036  RH  051%=      5-min Rain = 0
KBR1 220452Z 14008KT 06/M04 A2986 RMK A01 T00581036  RH  051%=      5-min Rain = 0
KBR1 220453Z 16013G19KT 06/M04 A2986 RMK A01 T00581036  RH  051%=      5-min Rain = 0
KBR1 220454Z 16014KT 06/M04 A2986 RMK A01 T00581036  RH  051%=      5-min Rain = 0
KBR1 220455Z 15015KT 06/M04 A2986 RMK A01 T00591036  RH  051%=      5-min Rain = 0
KBR1 220456Z 15016KT 06/M04 A2986 RMK A01 T00601036  RH  050%=      5-min Rain = 0
KBR1 220457Z 16016KT 06/M04 A2987 RMK A01 T00601036  RH  050%=      5-min Rain = 0
KBR1 220458Z 14013KT 06/M04 A2987 RMK A01 T00601036  RH  050%=      5-min Rain = 0
KBR1 220459Z 15014KT 06/M04 A2987 RMK A01 T00601037  RH  050%=      5-min Rain = 0
KBR1 220500Z 15012KT 06/M04 A2987 RMK A01 T00601037  RH  050%=      5-min Rain = 0
KBR1 220501Z 14010KT 06/M04 A2987 RMK A01 T00591037  RH  050%=      5-min Rain = 0
KBR1 220502Z 14010KT 06/M04 A2987 RMK A01 T00581037  RH  050%=      5-min Rain = 0
KBR1 220503Z 14010KT 06/M04 A2987 RMK A01 T00581037  RH  050%=      5-min Rain = 0
KBR1 220504Z 15011KT 06/M04 A2987 RMK A01 T00571038  RH  051%=      5-min Rain = 0
KBR1 220505Z 16010KT 06/M04 A2987 RMK A01 T00561038  RH  051%=      5-min Rain = 0
KBR1 220506Z 16012G17KT 06/M04 A2987 RMK A01 T00561038  RH  051%=      5-min Rain = 0
KBR1 220507Z 15012KT 06/M04 A2987 RMK A01 T00561038  RH  051%=      5-min Rain = 0
KBR1 220508Z 15013KT 06/M04 A2987 RMK A01 T00561038  RH  051%=      5-min Rain = 0
KBR1 220509Z 16010KT 06/M04 A2987 RMK A01 T00561038  RH  051%=      5-min Rain = 0
KBR1 220510Z 16009KT 06/M04 A2987 RMK A01 T00561038  RH  051%=      5-min Rain = 0
KBR1 220511Z 16009G14KT 06/M04 A2987 RMK A01 T00551039  RH  051%=      5-min Rain = 0
KBR1 220512Z 16009KT 05/M04 A2987 RMK A01 T00541039  RH  051%=      5-min Rain = 0
KBR1 220513Z 16008KT 05/M04 A2987 RMK A01 T00531039  RH  051%=      5-min Rain = 0
KBR1 220514Z 16010KT 05/M04 A2987 RMK A01 T00521040  RH  052%=      5-min Rain = 0
KBR1 220515Z 15008KT 05/M04 A2987 RMK A01 T00511040  RH  052%=      5-min Rain = 0
KBR1 220516Z 16006KT 05/M04 A2987 RMK A01 T00511040  RH  052%=      5-min Rain = 0
KBR1 220517Z 16006KT 05/M04 A2987 RMK A01 T00501040  RH  052%=      5-min Rain = 0
KBR1 220518Z 14007KT 05/M04 A2987 RMK A01 T00491040  RH  052%=      5-min Rain = 0
KBR1 220519Z 13005KT 05/M04 A2987 RMK A01 T00491040  RH  052%=      5-min Rain = 0
KBR1 220520Z 15007KT 05/M04 A2987 RMK A01 T00481041  RH  052%=      5-min Rain = 0
KBR1 220521Z 14007KT 05/M04 A2987 RMK A01 T00481041  RH  053%=      5-min Rain = 0
KBR1 220522Z 14007KT 05/M04 A2987 RMK A01 T00491040  RH  052%=      5-min Rain = 0
KBR1 220523Z 15007KT 05/M04 A2987 RMK A01 T00491041  RH  052%=      5-min Rain = 0
KBR1 220524Z 16007KT 05/M04 A2987 RMK A01 T00481041  RH  052%=      5-min Rain = 0
KBR1 220525Z 15007KT 05/M04 A2987 RMK A01 T00491040  RH  052%=      5-min Rain = 0
KBR1 220526Z 15008KT 05/M04 A2988 RMK A01 T00491041  RH  052%=      5-min Rain = 0
KBR1 220527Z 13008KT 05/M04 A2988 RMK A01 T00481041  RH  052%=      5-min Rain = 0
KBR1 220528Z 14008KT 05/M04 A2988 RMK A01 T00481041  RH  053%=      5-min Rain = 0
KBR1 220529Z 13006KT 05/M04 A2988 RMK A01 T00481041  RH  052%=      5-min Rain = 0
KBR1 220530Z 14006KT 05/M04 A2988 RMK A01 T00481041  RH  052%=      5-min Rain = 0
KBR1 220531Z 13008G13KT 05/M04 A2988 RMK A01 T00471041  RH  053%=      5-min Rain = 0
KBR1 220532Z 14009KT 05/M04 A2988 RMK A01 T00471041  RH  053%=      5-min Rain = 0
KBR1 220533Z 15009KT 05/M04 A2988 RMK A01 T00471041  RH  053%=      5-min Rain = 0
KBR1 220534Z 15008KT 05/M04 A2988 RMK A01 T00481040  RH  053%=      5-min Rain = 0
KBR1 220535Z 15008KT 05/M04 A2988 RMK A01 T00481041  RH  053%=      5-min Rain = 0
KBR1 220536Z 14010KT 05/M04 A2988 RMK A01 T00481041  RH  052%=      5-min Rain = 0
KBR1 220537Z 13009KT 05/M04 A2988 RMK A01 T00481041  RH  052%=      5-min Rain = 0
KBR1 220538Z 14007KT 05/M04 A2988 RMK A01 T00491041  RH  052%=      5-min Rain = 0
KBR1 220539Z 15007KT 05/M04 A2988 RMK A01 T00491041  RH  052%=      5-min Rain = 0
KBR1 220540Z 14006KT 05/M04 A2988 RMK A01 T00491041  RH  052%=      5-min Rain = 0
KBR1 220541Z 12005KT 05/M04 A2988 RMK A01 T00491041  RH  052%=      5-min Rain = 0
KBR1 220542Z 12005KT 05/M04 A2988 RMK A01 T00481041  RH  052%=      5-min Rain = 0
KBR1 220543Z 14006KT 05/M04 A2988 RMK A01 T00481042  RH  052%=      5-min Rain = 0
KBR1 220544Z 14006KT 05/M04 A2988 RMK A01 T00471042  RH  052%=      5-min Rain = 0
KBR1 220545Z 14005KT 05/M04 A2988 RMK A01 T00471042  RH  053%=      5-min Rain = 0
KBR1 220546Z 15006KT 05/M04 A2988 RMK A01 T00461042  RH  053%=      5-min Rain = 0
KBR1 220547Z 16004KT 05/M04 A2988 RMK A01 T00461042  RH  053%=      5-min Rain = 0
KBR1 220548Z 17005KT 05/M04 A2988 RMK A01 T00461042  RH  053%=      5-min Rain = 0
KBR1 220549Z 16003KT 05/M04 A2988 RMK A01 T00461042  RH  053%=      5-min Rain = 0
KBR1 220550Z 15004KT 05/M04 A2988 RMK A01 T00471041  RH  053%=      5-min Rain = 0
KBR1 220551Z 16004KT 05/M04 A2988 RMK A01 T00471042  RH  053%=      5-min Rain = 0
KBR1 220552Z 15004KT 05/M04 A2988 RMK A01 T00461042  RH  053%=      5-min Rain = 0
KBR1 220553Z 15003KT 05/M04 A2988 RMK A01 T00461042  RH  053%=      5-min Rain = 0
KBR1 220554Z 15002KT 05/M04 A2988 RMK A01 T00451043  RH  053%=      5-min Rain = 0
KBR1 220555Z 14002KT 04/M04 A2988 RMK A01 T00441043  RH  053%=      5-min Rain = 0
KBR1 220556Z 14001KT 04/M04 A2988 RMK A01 T00431043  RH  053%=      5-min Rain = 0
KBR1 220557Z 13001KT 04/M04 A2988 RMK A01 T00431043  RH  054%=      5-min Rain = 0
KBR1 220558Z 14002KT 04/M04 A2988 RMK A01 T00431043  RH  054%=      5-min Rain = 0
KBR1 220559Z 15003KT 04/M04 A2988 RMK A01 T00421043  RH  054%=      5-min Rain = 0

Page generated in 0.0818 seconds.